Observation data for Throckmorton on 01/17/2019      Previous  Date  Next       Current Mesonet Observations  Soil Data  Daily Summary Page  Observations in Plain Language
KTH1 170600Z 22010KT 13/09 A3003 RMK A01 T01250093  RH  081%=      5-min Rain = 0
KTH1 170601Z 23011KT 13/09 A3003 RMK A01 T01250093  RH  081%=      5-min Rain = 0
KTH1 170602Z 23009KT 13/09 A3003 RMK A01 T01250093  RH  081%=      5-min Rain = 0
KTH1 170603Z 23009KT 13/09 A3003 RMK A01 T01250093  RH  081%=      5-min Rain = 0
KTH1 170604Z 23008KT 12/09 A3003 RMK A01 T01240093  RH  081%=      5-min Rain = 0
KTH1 170605Z 23010KT 12/09 A3003 RMK A01 T01240092  RH  081%=      5-min Rain = 0
KTH1 170606Z 23010KT 12/09 A3003 RMK A01 T01230092  RH  081%=      5-min Rain = 0
KTH1 170607Z 23010KT 12/09 A3003 RMK A01 T01230092  RH  081%=      5-min Rain = 0
KTH1 170608Z 23009KT 12/09 A3003 RMK A01 T01230092  RH  081%=      5-min Rain = 0
KTH1 170609Z 23008KT 12/09 A3003 RMK A01 T01230092  RH  081%=      5-min Rain = 0
KTH1 170610Z 23010KT 12/09 A3003 RMK A01 T01220092  RH  082%=      5-min Rain = 0
KTH1 170611Z 23009KT 12/09 A3003 RMK A01 T01220092  RH  082%=      5-min Rain = 0
KTH1 170612Z 24010KT 12/09 A3003 RMK A01 T01220092  RH  082%=      5-min Rain = 0
KTH1 170613Z 23009KT 12/09 A3003 RMK A01 T01220091  RH  081%=      5-min Rain = 0
KTH1 170614Z 23010KT 12/09 A3003 RMK A01 T01220091  RH  081%=      5-min Rain = 0
KTH1 170615Z 23010KT 12/09 A3003 RMK A01 T01220091  RH  081%=      5-min Rain = 0
KTH1 170616Z 23010KT 12/09 A3003 RMK A01 T01230091  RH  081%=      5-min Rain = 0
KTH1 170617Z 23009KT 12/09 A3003 RMK A01 T01230091  RH  081%=      5-min Rain = 0
KTH1 170618Z 23009KT 12/09 A3003 RMK A01 T01240091  RH  081%=      5-min Rain = 0
KTH1 170619Z 24009KT 12/09 A3003 RMK A01 T01240091  RH  081%=      5-min Rain = 0
KTH1 170620Z 23009KT 12/09 A3003 RMK A01 T01240091  RH  081%=      5-min Rain = 0
KTH1 170621Z 23010KT 12/09 A3003 RMK A01 T01240092  RH  081%=      5-min Rain = 0
KTH1 170622Z 23011KT 12/09 A3003 RMK A01 T01240091  RH  080%=      5-min Rain = 0
KTH1 170623Z 23011KT 12/09 A3003 RMK A01 T01240091  RH  080%=      5-min Rain = 0
KTH1 170624Z 23010KT 12/09 A3003 RMK A01 T01240091  RH  080%=      5-min Rain = 0
KTH1 170625Z 23010KT 12/09 A3003 RMK A01 T01240091  RH  080%=      5-min Rain = 0
KTH1 170626Z 23009KT 12/09 A3003 RMK A01 T01240090  RH  080%=      5-min Rain = 0
KTH1 170627Z 23009KT 12/09 A3003 RMK A01 T01240091  RH  080%=      5-min Rain = 0
KTH1 170628Z 23011KT 12/09 A3002 RMK A01 T01240090  RH  080%=      5-min Rain = 0
KTH1 170629Z 23009KT 12/09 A3003 RMK A01 T01240090  RH  080%=      5-min Rain = 0
KTH1 170630Z 23011KT 12/09 A3002 RMK A01 T01240090  RH  080%=      5-min Rain = 0
KTH1 170631Z 23010KT 12/09 A3002 RMK A01 T01240090  RH  080%=      5-min Rain = 0
KTH1 170632Z 23011G16KT 12/09 A3002 RMK A01 T01230090  RH  080%=      5-min Rain = 0
KTH1 170633Z 23011KT 12/09 A3002 RMK A01 T01240090  RH  080%=      5-min Rain = 0
KTH1 170634Z 24011KT 12/09 A3002 RMK A01 T01240090  RH  080%=      5-min Rain = 0
KTH1 170635Z 23009KT 12/09 A3003 RMK A01 T01240090  RH  080%=      5-min Rain = 0
KTH1 170636Z 23010KT 12/09 A3003 RMK A01 T01240090  RH  080%=      5-min Rain = 0
KTH1 170637Z 23010KT 12/09 A3003 RMK A01 T01230090  RH  080%=      5-min Rain = 0
KTH1 170638Z 22009KT 12/09 A3002 RMK A01 T01230090  RH  080%=      5-min Rain = 0
KTH1 170639Z 23009KT 12/09 A3003 RMK A01 T01230090  RH  080%=      5-min Rain = 0
KTH1 170640Z 23009KT 12/09 A3003 RMK A01 T01220089  RH  080%=      5-min Rain = 0
KTH1 170641Z 22008KT 12/09 A3003 RMK A01 T01220090  RH  080%=      5-min Rain = 0
KTH1 170642Z 22008KT 12/09 A3003 RMK A01 T01210089  RH  081%=      5-min Rain = 0
KTH1 170643Z 22010KT 12/09 A3002 RMK A01 T01210089  RH  081%=      5-min Rain = 0
KTH1 170644Z 23009KT 12/09 A3003 RMK A01 T01210089  RH  081%=      5-min Rain = 0
KTH1 170645Z 23011KT 12/09 A3003 RMK A01 T01210089  RH  081%=      5-min Rain = 0
KTH1 170646Z 23010KT 12/09 A3003 RMK A01 T01210089  RH  081%=      5-min Rain = 0
KTH1 170647Z 23008KT 12/09 A3003 RMK A01 T01210089  RH  081%=      5-min Rain = 0
KTH1 170648Z 23011KT 12/09 A3003 RMK A01 T01210089  RH  081%=      5-min Rain = 0
KTH1 170649Z 23009KT 12/09 A3003 RMK A01 T01210089  RH  081%=      5-min Rain = 0
KTH1 170650Z 23009KT 12/09 A3003 RMK A01 T01200089  RH  081%=      5-min Rain = 0
KTH1 170651Z 22009KT 12/09 A3003 RMK A01 T01200089  RH  081%=      5-min Rain = 0
KTH1 170652Z 23010KT 12/09 A3003 RMK A01 T01190088  RH  082%=      5-min Rain = 0
KTH1 170653Z 23012KT 12/09 A3002 RMK A01 T01190088  RH  082%=      5-min Rain = 0
KTH1 170654Z 22011KT 12/09 A3002 RMK A01 T01190089  RH  082%=      5-min Rain = 0
KTH1 170655Z 23010KT 12/09 A3002 RMK A01 T01190089  RH  082%=      5-min Rain = 0
KTH1 170656Z 22010KT 12/09 A3002 RMK A01 T01190088  RH  082%=      5-min Rain = 0
KTH1 170657Z 22009KT 12/09 A3002 RMK A01 T01180088  RH  082%=      5-min Rain = 0
KTH1 170658Z 22009KT 12/09 A3002 RMK A01 T01180089  RH  082%=      5-min Rain = 0
KTH1 170659Z 23010KT 12/09 A3002 RMK A01 T01170089  RH  082%=      5-min Rain = 0
KTH1 170700Z 23009KT 12/09 A3002 RMK A01 T01170088  RH  083%=      5-min Rain = 0
KTH1 170701Z 23009G14KT 12/09 A3002 RMK A01 T01170088  RH  083%=      5-min Rain = 0
KTH1 170702Z 23010G15KT 12/09 A3002 RMK A01 T01160088  RH  083%=      5-min Rain = 0
KTH1 170703Z 23010KT 12/09 A3002 RMK A01 T01160088  RH  083%=      5-min Rain = 0
KTH1 170704Z 23010KT 12/09 A3002 RMK A01 T01160088  RH  083%=      5-min Rain = 0
KTH1 170705Z 23008KT 12/09 A3002 RMK A01 T01160088  RH  083%=      5-min Rain = 0
KTH1 170706Z 23008KT 12/09 A3002 RMK A01 T01160088  RH  083%=      5-min Rain = 0
KTH1 170707Z 23008KT 12/09 A3002 RMK A01 T01150088  RH  083%=      5-min Rain = 0
KTH1 170708Z 23009KT 12/09 A3002 RMK A01 T01150088  RH  083%=      5-min Rain = 0
KTH1 170709Z 23008KT 12/09 A3002 RMK A01 T01150088  RH  083%=      5-min Rain = 0
KTH1 170710Z 23010KT 12/09 A3002 RMK A01 T01150088  RH  083%=      5-min Rain = 0
KTH1 170711Z 23009KT 12/09 A3002 RMK A01 T01160088  RH  083%=      5-min Rain = 0
KTH1 170712Z 23010KT 12/09 A3002 RMK A01 T01160088  RH  083%=      5-min Rain = 0
KTH1 170713Z 23009G14KT 12/09 A3002 RMK A01 T01160088  RH  083%=      5-min Rain = 0
KTH1 170714Z 23010KT 12/09 A3002 RMK A01 T01160088  RH  083%=      5-min Rain = 0
KTH1 170715Z 22008KT 12/09 A3002 RMK A01 T01150087  RH  083%=      5-min Rain = 0
KTH1 170716Z 23010KT 12/09 A3002 RMK A01 T01150087  RH  083%=      5-min Rain = 0
KTH1 170717Z 22008KT 12/09 A3002 RMK A01 T01150087  RH  083%=      5-min Rain = 0
KTH1 170718Z 23010KT 12/09 A3002 RMK A01 T01150088  RH  083%=      5-min Rain = 0
KTH1 170719Z 23010KT 12/09 A3002 RMK A01 T01150087  RH  083%=      5-min Rain = 0
KTH1 170720Z 22009KT 12/09 A3002 RMK A01 T01150087  RH  083%=      5-min Rain = 0
KTH1 170721Z 22009KT 12/09 A3002 RMK A01 T01150087  RH  083%=      5-min Rain = 0
KTH1 170722Z 22010KT 11/09 A3002 RMK A01 T01140087  RH  083%=      5-min Rain = 0
KTH1 170723Z 22007KT 11/09 A3002 RMK A01 T01140087  RH  084%=      5-min Rain = 0
KTH1 170724Z 22009KT 11/09 A3002 RMK A01 T01130087  RH  084%=      5-min Rain = 0
KTH1 170725Z 22009KT 11/09 A3002 RMK A01 T01130086  RH  084%=      5-min Rain = 0
KTH1 170726Z 22009KT 11/09 A3002 RMK A01 T01120086  RH  084%=      5-min Rain = 0
KTH1 170727Z 22009KT 11/09 A3002 RMK A01 T01120086  RH  084%=      5-min Rain = 0
KTH1 170728Z 23009KT 11/09 A3002 RMK A01 T01120086  RH  084%=      5-min Rain = 0
KTH1 170729Z 23008KT 11/09 A3002 RMK A01 T01120086  RH  084%=      5-min Rain = 0
KTH1 170730Z 22008KT 11/09 A3002 RMK A01 T01120086  RH  084%=      5-min Rain = 0
KTH1 170731Z 23007KT 11/09 A3002 RMK A01 T01120086  RH  084%=      5-min Rain = 0
KTH1 170732Z 23009KT 11/09 A3002 RMK A01 T01120086  RH  084%=      5-min Rain = 0
KTH1 170733Z 23010KT 11/09 A3002 RMK A01 T01120085  RH  083%=      5-min Rain = 0
KTH1 170734Z 23008KT 11/09 A3002 RMK A01 T01130085  RH  083%=      5-min Rain = 0
KTH1 170735Z 23008KT 11/09 A3002 RMK A01 T01140085  RH  083%=      5-min Rain = 0
KTH1 170736Z 22008KT 11/09 A3002 RMK A01 T01140085  RH  083%=      5-min Rain = 0
KTH1 170737Z 23009KT 11/09 A3002 RMK A01 T01140085  RH  082%=      5-min Rain = 0
KTH1 170738Z 22008KT 11/09 A3002 RMK A01 T01130085  RH  083%=      5-min Rain = 0
KTH1 170739Z 23009KT 11/08 A3002 RMK A01 T01120084  RH  083%=      5-min Rain = 0
KTH1 170740Z 22008KT 11/08 A3002 RMK A01 T01120084  RH  083%=      5-min Rain = 0
KTH1 170741Z 22008KT 11/08 A3002 RMK A01 T01120084  RH  083%=      5-min Rain = 0
KTH1 170742Z 22009KT 11/08 A3002 RMK A01 T01110084  RH  083%=      5-min Rain = 0
KTH1 170743Z 22010KT 11/08 A3002 RMK A01 T01110084  RH  083%=      5-min Rain = 0
KTH1 170744Z 22009KT 11/08 A3002 RMK A01 T01110084  RH  083%=      5-min Rain = 0
KTH1 170745Z 22009KT 11/08 A3002 RMK A01 T01110083  RH  083%=      5-min Rain = 0
KTH1 170746Z 22009KT 11/08 A3002 RMK A01 T01110084  RH  083%=      5-min Rain = 0
KTH1 170747Z 23009KT 11/08 A3002 RMK A01 T01110084  RH  083%=      5-min Rain = 0
KTH1 170748Z 23009KT 11/08 A3002 RMK A01 T01110083  RH  083%=      5-min Rain = 0
KTH1 170749Z 23010KT 11/08 A3002 RMK A01 T01110083  RH  083%=      5-min Rain = 0
KTH1 170750Z 23008KT 11/08 A3002 RMK A01 T01120083  RH  082%=      5-min Rain = 0
KTH1 170751Z 23009KT 11/08 A3002 RMK A01 T01120083  RH  082%=      5-min Rain = 0
KTH1 170752Z 22009KT 11/08 A3002 RMK A01 T01120083  RH  083%=      5-min Rain = 0
KTH1 170753Z 23009KT 11/08 A3003 RMK A01 T01120083  RH  082%=      5-min Rain = 0
KTH1 170754Z 23009KT 11/08 A3002 RMK A01 T01110082  RH  082%=      5-min Rain = 0
KTH1 170755Z 24010KT 11/08 A3003 RMK A01 T01110082  RH  082%=      5-min Rain = 0
KTH1 170756Z 23010KT 11/08 A3002 RMK A01 T01110082  RH  082%=      5-min Rain = 0
KTH1 170757Z 23009KT 11/08 A3003 RMK A01 T01120082  RH  082%=      5-min Rain = 0
KTH1 170758Z 23010KT 11/08 A3002 RMK A01 T01120082  RH  082%=      5-min Rain = 0
KTH1 170759Z 23009KT 11/08 A3002 RMK A01 T01130082  RH  081%=      5-min Rain = 0
KTH1 170800Z 23011KT 11/08 A3002 RMK A01 T01130081  RH  081%=      5-min Rain = 0
KTH1 170801Z 23010KT 11/08 A3002 RMK A01 T01130081  RH  080%=      5-min Rain = 0
KTH1 170802Z 23010KT 11/08 A3002 RMK A01 T01140081  RH  080%=      5-min Rain = 0
KTH1 170803Z 22010KT 11/08 A3002 RMK A01 T01140081  RH  080%=      5-min Rain = 0
KTH1 170804Z 23009KT 11/08 A3002 RMK A01 T01140080  RH  080%=      5-min Rain = 0
KTH1 170805Z 22010KT 11/08 A3002 RMK A01 T01140080  RH  080%=      5-min Rain = 0
KTH1 170806Z 22009KT 11/08 A3002 RMK A01 T01140080  RH  080%=      5-min Rain = 0
KTH1 170807Z 23008KT 11/08 A3002 RMK A01 T01140080  RH  079%=      5-min Rain = 0
KTH1 170808Z 23008KT 11/08 A3002 RMK A01 T01140079  RH  079%=      5-min Rain = 0
KTH1 170809Z 23009KT 11/08 A3002 RMK A01 T01140079  RH  079%=      5-min Rain = 0
KTH1 170810Z 22008KT 11/08 A3003 RMK A01 T01140079  RH  079%=      5-min Rain = 0
KTH1 170811Z 23008KT 11/08 A3003 RMK A01 T01140079  RH  079%=      5-min Rain = 0
KTH1 170812Z 23009KT 11/08 A3003 RMK A01 T01130079  RH  079%=      5-min Rain = 0
KTH1 170813Z 23008KT 11/08 A3003 RMK A01 T01130078  RH  079%=      5-min Rain = 0
KTH1 170814Z 23010KT 11/08 A3003 RMK A01 T01130078  RH  079%=      5-min Rain = 0
KTH1 170815Z 23010KT 11/08 A3003 RMK A01 T01120078  RH  079%=      5-min Rain = 0
KTH1 170816Z 23009KT 11/08 A3003 RMK A01 T01120077  RH  079%=      5-min Rain = 0
KTH1 170817Z 23009KT 11/08 A3003 RMK A01 T01120077  RH  079%=      5-min Rain = 0
KTH1 170818Z 23008KT 11/08 A3003 RMK A01 T01110077  RH  079%=      5-min Rain = 0
KTH1 170819Z 23008KT 11/08 A3003 RMK A01 T01120077  RH  079%=      5-min Rain = 0
KTH1 170820Z 22009KT 11/08 A3003 RMK A01 T01120076  RH  079%=      5-min Rain = 0
KTH1 170821Z 22010KT 11/08 A3003 RMK A01 T01120076  RH  079%=      5-min Rain = 0
KTH1 170822Z 22010KT 11/08 A3003 RMK A01 T01120076  RH  078%=      5-min Rain = 0
KTH1 170823Z 22011KT 11/08 A3003 RMK A01 T01120075  RH  078%=      5-min Rain = 0
KTH1 170824Z 22011KT 11/08 A3003 RMK A01 T01130075  RH  077%=      5-min Rain = 0
KTH1 170825Z 22009KT 11/07 A3003 RMK A01 T01130074  RH  077%=      5-min Rain = 0
KTH1 170826Z 22009KT 11/07 A3003 RMK A01 T01130074  RH  077%=      5-min Rain = 0
KTH1 170827Z 22009KT 11/07 A3003 RMK A01 T01130074  RH  077%=      5-min Rain = 0
KTH1 170828Z 22009KT 11/07 A3003 RMK A01 T01120073  RH  077%=      5-min Rain = 0
KTH1 170829Z 22009KT 11/07 A3003 RMK A01 T01130073  RH  076%=      5-min Rain = 0
KTH1 170830Z 23009KT 11/07 A3003 RMK A01 T01130073  RH  076%=      5-min Rain = 0
KTH1 170831Z 23007KT 11/07 A3003 RMK A01 T01130072  RH  076%=      5-min Rain = 0
KTH1 170832Z 23008KT 11/07 A3003 RMK A01 T01130072  RH  076%=      5-min Rain = 0
KTH1 170833Z 22008KT 11/07 A3003 RMK A01 T01130072  RH  076%=      5-min Rain = 0
KTH1 170834Z 22007KT 11/07 A3003 RMK A01 T01130072  RH  076%=      5-min Rain = 0
KTH1 170835Z 23007KT 11/07 A3003 RMK A01 T01130072  RH  076%=      5-min Rain = 0
KTH1 170836Z 23007KT 11/07 A3003 RMK A01 T01130072  RH  076%=      5-min Rain = 0
KTH1 170837Z 23007KT 11/07 A3003 RMK A01 T01120071  RH  076%=      5-min Rain = 0
KTH1 170838Z 23007KT 11/07 A3003 RMK A01 T01120070  RH  076%=      5-min Rain = 0
KTH1 170839Z 24006KT 11/07 A3003 RMK A01 T01120071  RH  076%=      5-min Rain = 0
KTH1 170840Z 24007KT 11/07 A3004 RMK A01 T01110072  RH  077%=      5-min Rain = 0
KTH1 170841Z 22007KT 11/07 A3003 RMK A01 T01080072  RH  078%=      5-min Rain = 0
KTH1 170842Z 23008KT 11/07 A3003 RMK A01 T01080071  RH  078%=      5-min Rain = 0
KTH1 170843Z 23008KT 11/07 A3003 RMK A01 T01080071  RH  078%=      5-min Rain = 0
KTH1 170844Z 23008KT 11/07 A3003 RMK A01 T01080070  RH  078%=      5-min Rain = 0
KTH1 170845Z 23007KT 11/07 A3003 RMK A01 T01090070  RH  077%=      5-min Rain = 0
KTH1 170846Z 23008KT 11/07 A3003 RMK A01 T01090070  RH  077%=      5-min Rain = 0
KTH1 170847Z 23007KT 11/07 A3003 RMK A01 T01090070  RH  077%=      5-min Rain = 0
KTH1 170848Z 23008KT 11/07 A3003 RMK A01 T01090070  RH  077%=      5-min Rain = 0
KTH1 170849Z 24008KT 11/07 A3003 RMK A01 T01090069  RH  076%=      5-min Rain = 0
KTH1 170850Z 24007KT 11/07 A3003 RMK A01 T01100069  RH  076%=      5-min Rain = 0
KTH1 170851Z 24007KT 11/07 A3003 RMK A01 T01100070  RH  076%=      5-min Rain = 0
KTH1 170852Z 25007KT 11/07 A3003 RMK A01 T01090070  RH  077%=      5-min Rain = 0
KTH1 170853Z 25007KT 11/07 A3003 RMK A01 T01080071  RH  078%=      5-min Rain = 0
KTH1 170854Z 25007KT 11/07 A3003 RMK A01 T01050072  RH  080%=      5-min Rain = 0
KTH1 170855Z 25007KT 10/07 A3003 RMK A01 T01020071  RH  081%=      5-min Rain = 0
KTH1 170856Z 25006KT 10/07 A3003 RMK A01 T01000071  RH  082%=      5-min Rain = 0
KTH1 170857Z 26007KT 10/07 A3003 RMK A01 T00990072  RH  083%=      5-min Rain = 0
KTH1 170858Z 25007KT 10/07 A3003 RMK A01 T00980071  RH  083%=      5-min Rain = 0
KTH1 170859Z 26007KT 10/07 A3003 RMK A01 T00970071  RH  084%=      5-min Rain = 0
KTH1 170900Z 25008KT 10/07 A3003 RMK A01 T00960071  RH  084%=      5-min Rain = 0
KTH1 170901Z 25008KT 10/07 A3003 RMK A01 T00960070  RH  084%=      5-min Rain = 0
KTH1 170902Z 25008KT 10/07 A3003 RMK A01 T00960070  RH  084%=      5-min Rain = 0
KTH1 170903Z 26008KT 10/07 A3003 RMK A01 T00970071  RH  084%=      5-min Rain = 0
KTH1 170904Z 26008KT 10/07 A3003 RMK A01 T00960070  RH  084%=      5-min Rain = 0
KTH1 170905Z 26009KT 10/07 A3003 RMK A01 T00960070  RH  084%=      5-min Rain = 0
KTH1 170906Z 26009KT 10/07 A3003 RMK A01 T00950068  RH  083%=      5-min Rain = 0
KTH1 170907Z 26009KT 10/07 A3003 RMK A01 T00950068  RH  083%=      5-min Rain = 0
KTH1 170908Z 26009KT 10/07 A3003 RMK A01 T00960067  RH  082%=      5-min Rain = 0
KTH1 170909Z 26008KT 10/07 A3003 RMK A01 T00970067  RH  082%=      5-min Rain = 0
KTH1 170910Z 26008KT 10/07 A3003 RMK A01 T00970066  RH  081%=      5-min Rain = 0
KTH1 170911Z 26008KT 10/07 A3003 RMK A01 T00980066  RH  080%=      5-min Rain = 0
KTH1 170912Z 26008KT 10/07 A3003 RMK A01 T00980066  RH  080%=      5-min Rain = 0
KTH1 170913Z 26009KT 10/07 A3003 RMK A01 T00980065  RH  080%=      5-min Rain = 0
KTH1 170914Z 26009KT 10/06 A3003 RMK A01 T00980064  RH  079%=      5-min Rain = 0
KTH1 170915Z 26009KT 10/06 A3003 RMK A01 T00990064  RH  079%=      5-min Rain = 0
KTH1 170916Z 25009KT 10/07 A3003 RMK A01 T01000065  RH  079%=      5-min Rain = 0
KTH1 170917Z 26009KT 10/07 A3003 RMK A01 T01000065  RH  079%=      5-min Rain = 0
KTH1 170918Z 25009KT 10/06 A3003 RMK A01 T01000063  RH  078%=      5-min Rain = 0
KTH1 170919Z 26008KT 10/06 A3003 RMK A01 T01010064  RH  078%=      5-min Rain = 0
KTH1 170920Z 25008KT 10/06 A3003 RMK A01 T01010064  RH  078%=      5-min Rain = 0
KTH1 170921Z 25008KT 10/06 A3003 RMK A01 T01010064  RH  078%=      5-min Rain = 0
KTH1 170922Z 25008KT 10/06 A3003 RMK A01 T01000064  RH  078%=      5-min Rain = 0
KTH1 170923Z 25008KT 10/07 A3004 RMK A01 T01000065  RH  079%=      5-min Rain = 0
KTH1 170924Z 25008KT 10/07 A3004 RMK A01 T00990065  RH  080%=      5-min Rain = 0
KTH1 170925Z 25007KT 10/07 A3004 RMK A01 T00980065  RH  080%=      5-min Rain = 0
KTH1 170926Z 25008KT 10/06 A3004 RMK A01 T00980064  RH  080%=      5-min Rain = 0
KTH1 170927Z 25008KT 10/07 A3004 RMK A01 T00970065  RH  081%=      5-min Rain = 0
KTH1 170928Z 25008KT 10/07 A3004 RMK A01 T00960066  RH  081%=      5-min Rain = 0
KTH1 170929Z 25008KT 10/07 A3004 RMK A01 T00960065  RH  081%=      5-min Rain = 0
KTH1 170930Z 25008KT 10/06 A3004 RMK A01 T00950064  RH  081%=      5-min Rain = 0
KTH1 170931Z 25008KT 09/06 A3004 RMK A01 T00940063  RH  081%=      5-min Rain = 0
KTH1 170932Z 24008KT 09/06 A3004 RMK A01 T00940063  RH  081%=      5-min Rain = 0
KTH1 170933Z 25009KT 09/06 A3004 RMK A01 T00940063  RH  081%=      5-min Rain = 0
KTH1 170934Z 25009KT 09/06 A3004 RMK A01 T00940064  RH  081%=      5-min Rain = 0
KTH1 170935Z 24010KT 09/06 A3004 RMK A01 T00940063  RH  081%=      5-min Rain = 0
KTH1 170936Z 25009KT 10/06 A3004 RMK A01 T00950063  RH  081%=      5-min Rain = 0
KTH1 170937Z 25009KT 09/06 A3004 RMK A01 T00940063  RH  081%=      5-min Rain = 0
KTH1 170938Z 25009KT 09/06 A3004 RMK A01 T00940063  RH  081%=      5-min Rain = 0
KTH1 170939Z 25009KT 09/06 A3004 RMK A01 T00940061  RH  080%=      5-min Rain = 0
KTH1 170940Z 26010KT 09/06 A3004 RMK A01 T00940059  RH  079%=      5-min Rain = 0
KTH1 170941Z 26010KT 10/06 A3005 RMK A01 T00950059  RH  078%=      5-min Rain = 0
KTH1 170942Z 26010KT 10/06 A3005 RMK A01 T00960058  RH  077%=      5-min Rain = 0
KTH1 170943Z 25011KT 10/06 A3005 RMK A01 T00970057  RH  076%=      5-min Rain = 0
KTH1 170944Z 25011KT 10/06 A3005 RMK A01 T00980057  RH  075%=      5-min Rain = 0
KTH1 170945Z 25011KT 10/06 A3005 RMK A01 T00990057  RH  075%=      5-min Rain = 0
KTH1 170946Z 25011KT 10/06 A3005 RMK A01 T00990058  RH  076%=      5-min Rain = 0
KTH1 170947Z 25011KT 10/06 A3005 RMK A01 T00990058  RH  076%=      5-min Rain = 0
KTH1 170948Z 25010KT 10/06 A3005 RMK A01 T00990056  RH  075%=      5-min Rain = 0
KTH1 170949Z 25010KT 10/06 A3005 RMK A01 T01000056  RH  074%=      5-min Rain = 0
KTH1 170950Z 25011KT 10/06 A3005 RMK A01 T01000056  RH  074%=      5-min Rain = 0
KTH1 170951Z 25011KT 10/06 A3005 RMK A01 T01000055  RH  074%=      5-min Rain = 0
KTH1 170952Z 25011KT 10/06 A3005 RMK A01 T01000055  RH  073%=      5-min Rain = 0
KTH1 170953Z 25011KT 10/06 A3005 RMK A01 T01010055  RH  073%=      5-min Rain = 0
KTH1 170954Z 25011KT 10/06 A3005 RMK A01 T01010055  RH  073%=      5-min Rain = 0
KTH1 170955Z 25012KT 10/05 A3005 RMK A01 T01010054  RH  073%=      5-min Rain = 0
KTH1 170956Z 26012KT 10/06 A3005 RMK A01 T01010055  RH  073%=      5-min Rain = 0
KTH1 170957Z 26012KT 10/05 A3005 RMK A01 T01010054  RH  073%=      5-min Rain = 0
KTH1 170958Z 26011KT 10/05 A3005 RMK A01 T01020054  RH  072%=      5-min Rain = 0
KTH1 170959Z 26011KT 10/05 A3005 RMK A01 T01020054  RH  072%=      5-min Rain = 0
KTH1 171000Z 26011KT 10/06 A3005 RMK A01 T01020055  RH  072%=      5-min Rain = 0
KTH1 171001Z 26011KT 10/05 A3005 RMK A01 T01020054  RH  072%=      5-min Rain = 0
KTH1 171002Z 26012KT 10/05 A3005 RMK A01 T01020052  RH  071%=      5-min Rain = 0
KTH1 171003Z 26012KT 10/05 A3005 RMK A01 T01020050  RH  070%=      5-min Rain = 0
KTH1 171004Z 26011KT 10/05 A3005 RMK A01 T01040051  RH  070%=      5-min Rain = 0
KTH1 171005Z 27011KT 10/05 A3005 RMK A01 T01040051  RH  069%=      5-min Rain = 0
KTH1 171006Z 27011KT 11/05 A3005 RMK A01 T01050050  RH  069%=      5-min Rain = 0
KTH1 171007Z 27010KT 11/05 A3005 RMK A01 T01050049  RH  068%=      5-min Rain = 0
KTH1 171008Z 27011KT 11/05 A3005 RMK A01 T01050049  RH  068%=      5-min Rain = 0
KTH1 171009Z 27010KT 11/05 A3005 RMK A01 T01050049  RH  069%=      5-min Rain = 0
KTH1 171010Z 28010KT 11/05 A3006 RMK A01 T01050048  RH  068%=      5-min Rain = 0
KTH1 171011Z 28010KT 11/05 A3006 RMK A01 T01050048  RH  067%=      5-min Rain = 0
KTH1 171012Z 28010KT 11/05 A3006 RMK A01 T01050047  RH  067%=      5-min Rain = 0
KTH1 171013Z 28011KT 11/05 A3006 RMK A01 T01050047  RH  067%=      5-min Rain = 0
KTH1 171014Z 29010KT 11/05 A3006 RMK A01 T01050046  RH  067%=      5-min Rain = 0
KTH1 171015Z 29010KT 11/05 A3006 RMK A01 T01050045  RH  066%=      5-min Rain = 0
KTH1 171016Z 29010KT 11/05 A3006 RMK A01 T01060045  RH  066%=      5-min Rain = 0
KTH1 171017Z 29010KT 11/05 A3006 RMK A01 T01060045  RH  066%=      5-min Rain = 0
KTH1 171018Z 28011KT 11/05 A3006 RMK A01 T01060045  RH  066%=      5-min Rain = 0
KTH1 171019Z 28011KT 11/04 A3006 RMK A01 T01060044  RH  066%=      5-min Rain = 0
KTH1 171020Z 28012KT 11/04 A3006 RMK A01 T01050044  RH  066%=      5-min Rain = 0
KTH1 171021Z 29012KT 11/04 A3006 RMK A01 T01050043  RH  065%=      5-min Rain = 0
KTH1 171022Z 29013KT 11/04 A3006 RMK A01 T01050043  RH  065%=      5-min Rain = 0
KTH1 171023Z 29012KT 11/04 A3006 RMK A01 T01060043  RH  065%=      5-min Rain = 0
KTH1 171024Z 29012KT 11/04 A3006 RMK A01 T01060042  RH  065%=      5-min Rain = 0
KTH1 171025Z 29012KT 11/04 A3006 RMK A01 T01060043  RH  065%=      5-min Rain = 0
KTH1 171026Z 29012KT 11/04 A3006 RMK A01 T01060043  RH  065%=      5-min Rain = 0
KTH1 171027Z 29012KT 11/04 A3006 RMK A01 T01070043  RH  065%=      5-min Rain = 0
KTH1 171028Z 30012KT 11/04 A3007 RMK A01 T01070042  RH  064%=      5-min Rain = 0
KTH1 171029Z 31011KT 11/04 A3007 RMK A01 T01070043  RH  065%=      5-min Rain = 0
KTH1 171030Z 31010KT 11/04 A3007 RMK A01 T01070043  RH  065%=      5-min Rain = 0
KTH1 171031Z 31013KT 11/04 A3007 RMK A01 T01060043  RH  065%=      5-min Rain = 0
KTH1 171032Z 31016KT 11/04 A3007 RMK A01 T01060042  RH  065%=      5-min Rain = 0
KTH1 171033Z 32015KT 11/04 A3007 RMK A01 T01070042  RH  064%=      5-min Rain = 0
KTH1 171034Z 32013KT 11/04 A3007 RMK A01 T01070043  RH  065%=      5-min Rain = 0
KTH1 171035Z 31013KT 11/04 A3007 RMK A01 T01050043  RH  065%=      5-min Rain = 0
KTH1 171036Z 32012KT 10/04 A3007 RMK A01 T01040043  RH  066%=      5-min Rain = 0
KTH1 171037Z 31013KT 10/04 A3007 RMK A01 T01040044  RH  067%=      5-min Rain = 0
KTH1 171038Z 31013KT 10/04 A3007 RMK A01 T01020044  RH  067%=      5-min Rain = 0
KTH1 171039Z 31013KT 10/04 A3008 RMK A01 T01020044  RH  067%=      5-min Rain = 0
KTH1 171040Z 31013KT 10/04 A3008 RMK A01 T01010043  RH  067%=      5-min Rain = 0
KTH1 171041Z 31012KT 10/04 A3008 RMK A01 T01000044  RH  068%=      5-min Rain = 0
KTH1 171042Z 32011KT 10/04 A3008 RMK A01 T00990044  RH  069%=      5-min Rain = 0
KTH1 171043Z 32011KT 10/05 A3008 RMK A01 T00980045  RH  070%=      5-min Rain = 0
KTH1 171044Z 32011KT 10/04 A3008 RMK A01 T00960044  RH  070%=      5-min Rain = 0
KTH1 171045Z 32009KT 10/04 A3008 RMK A01 T00950044  RH  071%=      5-min Rain = 0
KTH1 171046Z 32010KT 09/04 A3008 RMK A01 T00930044  RH  071%=      5-min Rain = 0
KTH1 171047Z 32009KT 09/04 A3008 RMK A01 T00920043  RH  071%=      5-min Rain = 0
KTH1 171048Z 32008KT 09/04 A3008 RMK A01 T00920043  RH  072%=      5-min Rain = 0
KTH1 171049Z 32010KT 09/04 A3008 RMK A01 T00910042  RH  072%=      5-min Rain = 0
KTH1 171050Z 32009KT 09/04 A3008 RMK A01 T00900042  RH  072%=      5-min Rain = 0
KTH1 171051Z 32008KT 09/04 A3008 RMK A01 T00890043  RH  073%=      5-min Rain = 0
KTH1 171052Z 32008KT 09/04 A3008 RMK A01 T00880043  RH  073%=      5-min Rain = 0
KTH1 171053Z 32008KT 09/04 A3008 RMK A01 T00870043  RH  074%=      5-min Rain = 0
KTH1 171054Z 33009KT 09/04 A3008 RMK A01 T00860042  RH  074%=      5-min Rain = 0
KTH1 171055Z 32010KT 09/04 A3008 RMK A01 T00850042  RH  074%=      5-min Rain = 0
KTH1 171056Z 32010KT 09/04 A3008 RMK A01 T00850041  RH  074%=      5-min Rain = 0
KTH1 171057Z 32011KT 08/04 A3008 RMK A01 T00840041  RH  074%=      5-min Rain = 0
KTH1 171058Z 33010KT 08/04 A3008 RMK A01 T00830040  RH  074%=      5-min Rain = 0
KTH1 171059Z 33010KT 08/04 A3008 RMK A01 T00820040  RH  075%=      5-min Rain = 0
KTH1 171100Z 32011KT 08/04 A3008 RMK A01 T00810039  RH  075%=      5-min Rain = 0
KTH1 171101Z 33011KT 08/04 A3008 RMK A01 T00800040  RH  076%=      5-min Rain = 0
KTH1 171102Z 33011KT 08/04 A3008 RMK A01 T00790040  RH  076%=      5-min Rain = 0
KTH1 171103Z 33011KT 08/04 A3008 RMK A01 T00780040  RH  077%=      5-min Rain = 0
KTH1 171104Z 33011KT 08/04 A3008 RMK A01 T00780040  RH  077%=      5-min Rain = 0
KTH1 171105Z 33009KT 08/04 A3008 RMK A01 T00770040  RH  078%=      5-min Rain = 0
KTH1 171106Z 33009KT 08/04 A3008 RMK A01 T00760040  RH  078%=      5-min Rain = 0
KTH1 171107Z 32011KT 08/04 A3008 RMK A01 T00750041  RH  079%=      5-min Rain = 0
KTH1 171108Z 32009KT 08/04 A3008 RMK A01 T00750041  RH  079%=      5-min Rain = 0
KTH1 171109Z 32010KT 07/04 A3008 RMK A01 T00740041  RH  080%=      5-min Rain = 0
KTH1 171110Z 33010KT 07/04 A3008 RMK A01 T00740042  RH  080%=      5-min Rain = 0
KTH1 171111Z 33009KT 07/04 A3008 RMK A01 T00730041  RH  080%=      5-min Rain = 0
KTH1 171112Z 33008KT 07/04 A3009 RMK A01 T00730041  RH  080%=      5-min Rain = 0
KTH1 171113Z 33008KT 07/04 A3009 RMK A01 T00720041  RH  081%=      5-min Rain = 0
KTH1 171114Z 33011KT 07/04 A3009 RMK A01 T00710041  RH  081%=      5-min Rain = 0
KTH1 171115Z 33009KT 07/04 A3009 RMK A01 T00700041  RH  082%=      5-min Rain = 0
KTH1 171116Z 34010KT 07/04 A3009 RMK A01 T00690041  RH  082%=      5-min Rain = 0
KTH1 171117Z 33009KT 07/04 A3009 RMK A01 T00680041  RH  083%=      5-min Rain = 0
KTH1 171118Z 34008KT 07/04 A3009 RMK A01 T00670041  RH  083%=      5-min Rain = 0
KTH1 171119Z 33007KT 07/04 A3009 RMK A01 T00660041  RH  084%=      5-min Rain = 0
KTH1 171120Z 34008KT 07/04 A3009 RMK A01 T00650042  RH  085%=      5-min Rain = 0
KTH1 171121Z 34009KT 07/04 A3009 RMK A01 T00650042  RH  086%=      5-min Rain = 0
KTH1 171122Z 33009KT 06/04 A3009 RMK A01 T00630042  RH  086%=      5-min Rain = 0
KTH1 171123Z 33008KT 06/04 A301 RMK A01 T00630043  RH  087%=      5-min Rain = 0
KTH1 171124Z 34007KT 06/04 A301 RMK A01 T00620043  RH  087%=      5-min Rain = 0
KTH1 171125Z 34007KT 06/04 A301 RMK A01 T00610042  RH  088%=      5-min Rain = 0
KTH1 171126Z 34006KT 06/04 A3009 RMK A01 T00610042  RH  088%=      5-min Rain = 0
KTH1 171127Z 33008KT 06/04 A3009 RMK A01 T00600043  RH  089%=      5-min Rain = 0
KTH1 171128Z 33009KT 06/05 A301 RMK A01 T00600045  RH  090%=      5-min Rain = 0
KTH1 171129Z 33008KT 06/05 A301 RMK A01 T00600047  RH  091%=      5-min Rain = 0
KTH1 171130Z 32009KT 06/05 A3009 RMK A01 T00600048  RH  092%=      5-min Rain = 0
KTH1 171131Z 32009KT 06/05 A3009 RMK A01 T00600050  RH  093%=      5-min Rain = 0
KTH1 171132Z 32009KT 06/05 A3009 RMK A01 T00610051  RH  094%=      5-min Rain = 0
KTH1 171133Z 31010KT 06/05 A3009 RMK A01 T00610051  RH  094%=      5-min Rain = 0
KTH1 171134Z 32010KT 06/05 A3009 RMK A01 T00610052  RH  094%=      5-min Rain = 0
KTH1 171135Z 31009KT 06/05 A301 RMK A01 T00610052  RH  094%=      5-min Rain = 0
KTH1 171136Z 32009KT 06/05 A301 RMK A01 T00610052  RH  094%=      5-min Rain = 0
KTH1 171137Z 32008KT 06/05 A301 RMK A01 T00620053  RH  094%=      5-min Rain = 0
KTH1 171138Z 32008KT 06/05 A301 RMK A01 T00620053  RH  094%=      5-min Rain = 0
KTH1 171139Z 32008KT 06/05 A301 RMK A01 T00620053  RH  094%=      5-min Rain = 0
KTH1 171140Z 32007KT 06/05 A301 RMK A01 T00620053  RH  094%=      5-min Rain = 0
KTH1 171141Z 32009KT 06/05 A301 RMK A01 T00620053  RH  094%=      5-min Rain = 0
KTH1 171142Z 32008KT 06/05 A301 RMK A01 T00620054  RH  094%=      5-min Rain = 0
KTH1 171143Z 32008KT 06/06 A301 RMK A01 T00630055  RH  095%=      5-min Rain = 0
KTH1 171144Z 32008KT 06/06 A301 RMK A01 T00630055  RH  095%=      5-min Rain = 0
KTH1 171145Z 32007KT 06/06 A301 RMK A01 T00630055  RH  095%=      5-min Rain = 0
KTH1 171146Z 32006KT 06/06 A301 RMK A01 T00630055  RH  095%=      5-min Rain = 0
KTH1 171147Z 32007KT 06/06 A301 RMK A01 T00630055  RH  095%=      5-min Rain = 0
KTH1 171148Z 32007KT 06/06 A301 RMK A01 T00630055  RH  095%=      5-min Rain = 0
KTH1 171149Z 32009KT 06/06 A301 RMK A01 T00630056  RH  095%=      5-min Rain = 0
KTH1 171150Z 31009KT 06/06 A301 RMK A01 T00640056  RH  095%=      5-min Rain = 0
KTH1 171151Z 32009KT 06/06 A301 RMK A01 T00640057  RH  095%=      5-min Rain = 0
KTH1 171152Z 31009KT 06/06 A301 RMK A01 T00640057  RH  095%=      5-min Rain = 0
KTH1 171153Z 31009KT 06/06 A301 RMK A01 T00640057  RH  095%=      5-min Rain = 0
KTH1 171154Z 31009KT 06/06 A301 RMK A01 T00640057  RH  095%=      5-min Rain = 0
KTH1 171155Z 31008KT 07/06 A301 RMK A01 T00650057  RH  095%=      5-min Rain = 0
KTH1 171156Z 31008KT 07/06 A301 RMK A01 T00650058  RH  095%=      5-min Rain = 0
KTH1 171157Z 31009KT 07/06 A301 RMK A01 T00650058  RH  095%=      5-min Rain = 0
KTH1 171158Z 31010KT 07/06 A301 RMK A01 T00650057  RH  095%=      5-min Rain = 0
KTH1 171159Z 31009KT 07/06 A301 RMK A01 T00650058  RH  095%=      5-min Rain = 0
KTH1 171200Z 31009KT 07/06 A3011 RMK A01 T00650057  RH  095%=      5-min Rain = 0
KTH1 171201Z 31010KT 07/06 A3011 RMK A01 T00650058  RH  095%=      5-min Rain = 0
KTH1 171202Z 31009KT 07/06 A3011 RMK A01 T00650057  RH  095%=      5-min Rain = 0
KTH1 171203Z 31009KT 07/06 A3011 RMK A01 T00650057  RH  095%=      5-min Rain = 0
KTH1 171204Z 32008KT 06/06 A3011 RMK A01 T00640057  RH  095%=      5-min Rain = 0
KTH1 171205Z 32010KT 07/06 A3011 RMK A01 T00650057  RH  095%=      5-min Rain = 0
KTH1 171206Z 32009KT 07/06 A3011 RMK A01 T00650057  RH  095%=      5-min Rain = 0
KTH1 171207Z 32008KT 07/06 A3011 RMK A01 T00650056  RH  094%=      5-min Rain = 0
KTH1 171208Z 32007KT 06/06 A3011 RMK A01 T00640056  RH  094%=      5-min Rain = 0
KTH1 171209Z 32010KT 06/06 A3011 RMK A01 T00640056  RH  094%=      5-min Rain = 0
KTH1 171210Z 32009KT 06/06 A3011 RMK A01 T00640056  RH  094%=      5-min Rain = 0
KTH1 171211Z 32008KT 07/06 A3011 RMK A01 T00650056  RH  094%=      5-min Rain = 0
KTH1 171212Z 32007KT 07/06 A3011 RMK A01 T00650057  RH  094%=      5-min Rain = 0
KTH1 171213Z 33006KT 07/06 A3012 RMK A01 T00650056  RH  094%=      5-min Rain = 0
KTH1 171214Z 32007KT 07/06 A3012 RMK A01 T00650056  RH  094%=      5-min Rain = 0
KTH1 171215Z 32007KT 07/06 A3012 RMK A01 T00650057  RH  094%=      5-min Rain = 0
KTH1 171216Z 32007KT 07/06 A3012 RMK A01 T00660057  RH  094%=      5-min Rain = 0
KTH1 171217Z 31009KT 07/06 A3012 RMK A01 T00660057  RH  094%=      5-min Rain = 0
KTH1 171218Z 32008KT 07/06 A3012 RMK A01 T00660058  RH  094%=      5-min Rain = 0
KTH1 171219Z 32007KT 07/06 A3012 RMK A01 T00670058  RH  094%=      5-min Rain = 0
KTH1 171220Z 32008KT 07/06 A3012 RMK A01 T00670058  RH  094%=      5-min Rain = 0
KTH1 171221Z 32008KT 07/06 A3012 RMK A01 T00670058  RH  094%=      5-min Rain = 0
KTH1 171222Z 32008KT 07/06 A3012 RMK A01 T00670058  RH  094%=      5-min Rain = 0
KTH1 171223Z 32010KT 07/06 A3012 RMK A01 T00670058  RH  094%=      5-min Rain = 0
KTH1 171224Z 32009KT 07/06 A3012 RMK A01 T00670058  RH  094%=      5-min Rain = 0
KTH1 171225Z 32008KT 07/06 A3012 RMK A01 T00680058  RH  094%=      5-min Rain = 0
KTH1 171226Z 32009KT 07/06 A3012 RMK A01 T00680058  RH  094%=      5-min Rain = 0
KTH1 171227Z 32007KT 07/06 A3012 RMK A01 T00680058  RH  094%=      5-min Rain = 0
KTH1 171228Z 33009KT 07/06 A3012 RMK A01 T00680058  RH  094%=      5-min Rain = 0
KTH1 171229Z 33008KT 07/06 A3012 RMK A01 T00680058  RH  094%=      5-min Rain = 0
KTH1 171230Z 33008KT 07/06 A3012 RMK A01 T00680058  RH  093%=      5-min Rain = 0
KTH1 171231Z 33009KT 07/06 A3012 RMK A01 T00680058  RH  093%=      5-min Rain = 0
KTH1 171232Z 33009KT 07/06 A3012 RMK A01 T00680058  RH  093%=      5-min Rain = 0
KTH1 171233Z 34009KT 07/06 A3012 RMK A01 T00680058  RH  093%=      5-min Rain = 0
KTH1 171234Z 34008KT 07/06 A3012 RMK A01 T00690059  RH  093%=      5-min Rain = 0
KTH1 171235Z 33010KT 07/06 A3012 RMK A01 T00690059  RH  093%=      5-min Rain = 0
KTH1 171236Z 33009KT 07/06 A3012 RMK A01 T00690059  RH  093%=      5-min Rain = 0
KTH1 171237Z 33008KT 07/06 A3012 RMK A01 T00700059  RH  093%=      5-min Rain = 0
KTH1 171238Z 33008KT 07/06 A3012 RMK A01 T00690059  RH  093%=      5-min Rain = 0
KTH1 171239Z 33009KT 07/06 A3012 RMK A01 T00700059  RH  093%=      5-min Rain = 0
KTH1 171240Z 32010G15KT 07/06 A3012 RMK A01 T00700060  RH  093%=      5-min Rain = 0
KTH1 171241Z 33011KT 07/06 A3012 RMK A01 T00700059  RH  093%=      5-min Rain = 0
KTH1 171242Z 33010KT 07/06 A3012 RMK A01 T00710060  RH  093%=      5-min Rain = 0
KTH1 171243Z 33010KT 07/06 A3012 RMK A01 T00710060  RH  093%=      5-min Rain = 0
KTH1 171244Z 34010KT 07/06 A3012 RMK A01 T00710060  RH  092%=      5-min Rain = 0
KTH1 171245Z 33008KT 07/06 A3012 RMK A01 T00710060  RH  092%=      5-min Rain = 0
KTH1 171246Z 33009KT 07/06 A3012 RMK A01 T00710060  RH  092%=      5-min Rain = 0
KTH1 171247Z 33008KT 07/06 A3012 RMK A01 T00720060  RH  092%=      5-min Rain = 0
KTH1 171248Z 33009KT 07/06 A3013 RMK A01 T00720060  RH  092%=      5-min Rain = 0
KTH1 171249Z 32007KT 07/06 A3013 RMK A01 T00720060  RH  092%=      5-min Rain = 0
KTH1 171250Z 32007KT 07/06 A3013 RMK A01 T00720059  RH  092%=      5-min Rain = 0
KTH1 171251Z 33006KT 07/06 A3013 RMK A01 T00720060  RH  092%=      5-min Rain = 0
KTH1 171252Z 33009KT 07/06 A3013 RMK A01 T00720060  RH  092%=      5-min Rain = 0
KTH1 171253Z 32008KT 07/06 A3013 RMK A01 T00720060  RH  092%=      5-min Rain = 0
KTH1 171254Z 32007KT 07/06 A3013 RMK A01 T00720059  RH  092%=      5-min Rain = 0
KTH1 171255Z 32007KT 07/06 A3013 RMK A01 T00720060  RH  092%=      5-min Rain = 0
KTH1 171256Z 32007KT 07/06 A3013 RMK A01 T00720060  RH  092%=      5-min Rain = 0
KTH1 171257Z 33009KT 07/06 A3013 RMK A01 T00720060  RH  092%=      5-min Rain = 0
KTH1 171258Z 32009KT 07/06 A3013 RMK A01 T00720060  RH  092%=      5-min Rain = 0
KTH1 171259Z 31008KT 07/06 A3013 RMK A01 T00720060  RH  092%=      5-min Rain = 0
KTH1 171300Z 32010KT 07/06 A3013 RMK A01 T00720060  RH  092%=      5-min Rain = 0
KTH1 171301Z 32009KT 07/06 A3013 RMK A01 T00720060  RH  092%=      5-min Rain = 0
KTH1 171302Z 32009KT 07/06 A3013 RMK A01 T00720059  RH  092%=      5-min Rain = 0
KTH1 171303Z 32010KT 07/06 A3013 RMK A01 T00720060  RH  092%=      5-min Rain = 0
KTH1 171304Z 32009KT 07/06 A3013 RMK A01 T00720059  RH  092%=      5-min Rain = 0
KTH1 171305Z 32008KT 07/06 A3013 RMK A01 T00720059  RH  092%=      5-min Rain = 0
KTH1 171306Z 32008KT 07/06 A3013 RMK A01 T00720060  RH  092%=      5-min Rain = 0
KTH1 171307Z 32007KT 07/06 A3013 RMK A01 T00720059  RH  092%=      5-min Rain = 0
KTH1 171308Z 32008KT 07/06 A3013 RMK A01 T00720060  RH  092%=      5-min Rain = 0
KTH1 171309Z 32007KT 07/06 A3013 RMK A01 T00720060  RH  092%=      5-min Rain = 0
KTH1 171310Z 33007KT 07/06 A3013 RMK A01 T00720060  RH  092%=      5-min Rain = 0
KTH1 171311Z 32005KT 07/06 A3014 RMK A01 T00720060  RH  092%=      5-min Rain = 0
KTH1 171312Z 31006KT 07/06 A3014 RMK A01 T00720060  RH  092%=      5-min Rain = 0
KTH1 171313Z 32006KT 07/06 A3014 RMK A01 T00720060  RH  092%=      5-min Rain = 0
KTH1 171314Z 31006KT 07/06 A3014 RMK A01 T00720060  RH  092%=      5-min Rain = 0
KTH1 171315Z 32008KT 07/06 A3014 RMK A01 T00720060  RH  092%=      5-min Rain = 0
KTH1 171316Z 33009KT 07/06 A3014 RMK A01 T00720060  RH  092%=      5-min Rain = 0
KTH1 171317Z 33008KT 07/06 A3014 RMK A01 T00720060  RH  092%=      5-min Rain = 0
KTH1 171318Z 33008KT 07/06 A3014 RMK A01 T00720059  RH  092%=      5-min Rain = 0
KTH1 171319Z 33009KT 07/06 A3014 RMK A01 T00720059  RH  092%=      5-min Rain = 0
KTH1 171320Z 34009KT 07/06 A3014 RMK A01 T00720059  RH  092%=      5-min Rain = 0
KTH1 171321Z 33008KT 07/06 A3014 RMK A01 T00720059  RH  091%=      5-min Rain = 0
KTH1 171322Z 34010KT 07/06 A3015 RMK A01 T00720059  RH  091%=      5-min Rain = 0
KTH1 171323Z 32008KT 07/06 A3015 RMK A01 T00720059  RH  091%=      5-min Rain = 0
KTH1 171324Z 32009KT 07/06 A3015 RMK A01 T00720059  RH  091%=      5-min Rain = 0
KTH1 171325Z 32009KT 07/06 A3015 RMK A01 T00730059  RH  091%=      5-min Rain = 0
KTH1 171326Z 33011KT 07/06 A3015 RMK A01 T00720058  RH  091%=      5-min Rain = 0
KTH1 171327Z 34009KT 07/06 A3015 RMK A01 T00720058  RH  091%=      5-min Rain = 0
KTH1 171328Z 34009KT 07/06 A3015 RMK A01 T00720058  RH  091%=      5-min Rain = 0
KTH1 171329Z 33007KT 07/06 A3016 RMK A01 T00720058  RH  091%=      5-min Rain = 0
KTH1 171330Z 33005KT 07/06 A3016 RMK A01 T00730058  RH  090%=      5-min Rain = 0
KTH1 171331Z 33006KT 07/06 A3016 RMK A01 T00730058  RH  091%=      5-min Rain = 0
KTH1 171332Z 33008KT 07/06 A3016 RMK A01 T00720058  RH  091%=      5-min Rain = 0
KTH1 171333Z 31008KT 07/06 A3016 RMK A01 T00720058  RH  091%=      5-min Rain = 0
KTH1 171334Z 32008KT 07/06 A3016 RMK A01 T00730058  RH  090%=      5-min Rain = 0
KTH1 171335Z 34004KT 07/06 A3016 RMK A01 T00720057  RH  090%=      5-min Rain = 0
KTH1 171336Z 33003KT 07/06 A3016 RMK A01 T00720057  RH  090%=      5-min Rain = 0
KTH1 171337Z 32005KT 07/06 A3016 RMK A01 T00720058  RH  090%=      5-min Rain = 0
KTH1 171338Z 34006KT 07/06 A3017 RMK A01 T00720058  RH  090%=      5-min Rain = 0
KTH1 171339Z 34006KT 07/06 A3017 RMK A01 T00720058  RH  090%=      5-min Rain = 0
KTH1 171340Z 34006KT 07/06 A3017 RMK A01 T00720058  RH  090%=      5-min Rain = 0
KTH1 171341Z 33006KT 07/06 A3017 RMK A01 T00720058  RH  090%=      5-min Rain = 0
KTH1 171342Z 33005KT 07/06 A3017 RMK A01 T00720058  RH  090%=      5-min Rain = 0
KTH1 171343Z 32006KT 07/06 A3017 RMK A01 T00720058  RH  090%=      5-min Rain = 0
KTH1 171344Z 32005KT 07/06 A3017 RMK A01 T00720058  RH  090%=      5-min Rain = 0
KTH1 171345Z 32007KT 07/06 A3017 RMK A01 T00720058  RH  090%=      5-min Rain = 0
KTH1 171346Z 33008KT 07/06 A3017 RMK A01 T00720057  RH  090%=      5-min Rain = 0
KTH1 171347Z 33007KT 07/06 A3017 RMK A01 T00730057  RH  090%=      5-min Rain = 0
KTH1 171348Z 33007KT 07/06 A3017 RMK A01 T00730057  RH  090%=      5-min Rain = 0
KTH1 171349Z 32006KT 07/06 A3017 RMK A01 T00720057  RH  090%=      5-min Rain = 0
KTH1 171350Z 32007KT 07/06 A3017 RMK A01 T00720057  RH  090%=      5-min Rain = 0
KTH1 171351Z 33006KT 07/06 A3017 RMK A01 T00720057  RH  090%=      5-min Rain = 0
KTH1 171352Z 32007KT 07/06 A3017 RMK A01 T00720057  RH  090%=      5-min Rain = 0
KTH1 171353Z 32008KT 07/06 A3017 RMK A01 T00720057  RH  090%=      5-min Rain = 0
KTH1 171354Z 32009KT 07/06 A3017 RMK A01 T00720056  RH  090%=      5-min Rain = 0
KTH1 171355Z 31009KT 07/06 A3017 RMK A01 T00720056  RH  089%=      5-min Rain = 0
KTH1 171356Z 32007KT 07/06 A3017 RMK A01 T00720056  RH  089%=      5-min Rain = 0
KTH1 171357Z 33007KT 07/06 A3017 RMK A01 T00720056  RH  090%=      5-min Rain = 0
KTH1 171358Z 33006KT 07/06 A3017 RMK A01 T00720056  RH  089%=      5-min Rain = 0
KTH1 171359Z 33008KT 07/06 A3017 RMK A01 T00720056  RH  089%=      5-min Rain = 0
KTH1 171400Z 32007KT 07/06 A3017 RMK A01 T00720056  RH  089%=      5-min Rain = 0
KTH1 171401Z 33008KT 07/06 A3017 RMK A01 T00720055  RH  089%=      5-min Rain = 0
KTH1 171402Z 32009KT 07/06 A3017 RMK A01 T00720055  RH  089%=      5-min Rain = 0
KTH1 171403Z 33009KT 07/06 A3017 RMK A01 T00720055  RH  089%=      5-min Rain = 0
KTH1 171404Z 33008KT 07/06 A3017 RMK A01 T00720055  RH  089%=      5-min Rain = 0
KTH1 171405Z 33007KT 07/06 A3017 RMK A01 T00720055  RH  089%=      5-min Rain = 0
KTH1 171406Z 33009KT 07/05 A3017 RMK A01 T00710054  RH  089%=      5-min Rain = 0
KTH1 171407Z 33009KT 07/05 A3017 RMK A01 T00710054  RH  089%=      5-min Rain = 0
KTH1 171408Z 33009KT 07/05 A3017 RMK A01 T00710054  RH  089%=      5-min Rain = 0
KTH1 171409Z 33011KT 07/05 A3017 RMK A01 T00710053  RH  088%=      5-min Rain = 0
KTH1 171410Z 33009KT 07/05 A3017 RMK A01 T00710053  RH  088%=      5-min Rain = 0
KTH1 171411Z 34008G13KT 07/05 A3017 RMK A01 T00710053  RH  088%=      5-min Rain = 0
KTH1 171412Z 34007KT 07/05 A3017 RMK A01 T00710053  RH  088%=      5-min Rain = 0
KTH1 171413Z 35006KT 07/05 A3017 RMK A01 T00710053  RH  088%=      5-min Rain = 0
KTH1 171414Z 35007KT 07/05 A3017 RMK A01 T00710053  RH  088%=      5-min Rain = 0
KTH1 171415Z 35008KT 07/05 A3017 RMK A01 T00710053  RH  088%=      5-min Rain = 0
KTH1 171416Z 35009KT 07/05 A3017 RMK A01 T00710053  RH  088%=      5-min Rain = 0
KTH1 171417Z 35007KT 07/05 A3017 RMK A01 T00710053  RH  088%=      5-min Rain = 0
KTH1 171418Z 35008KT 07/05 A3017 RMK A01 T00710053  RH  088%=      5-min Rain = 0
KTH1 171419Z 35008KT 07/05 A3017 RMK A01 T00710053  RH  088%=      5-min Rain = 0
KTH1 171420Z 35006KT 07/05 A3017 RMK A01 T00710053  RH  088%=      5-min Rain = 0
KTH1 171421Z 35007KT 07/05 A3017 RMK A01 T00710053  RH  088%=      5-min Rain = 0
KTH1 171422Z 35008KT 07/05 A3017 RMK A01 T00710054  RH  088%=      5-min Rain = 0
KTH1 171423Z 35006KT 07/05 A3017 RMK A01 T00720053  RH  088%=      5-min Rain = 0
KTH1 171424Z 35008KT 07/05 A3017 RMK A01 T00720053  RH  088%=      5-min Rain = 0
KTH1 171425Z 35006KT 07/05 A3017 RMK A01 T00720054  RH  088%=      5-min Rain = 0
KTH1 171426Z 00006KT 07/05 A3017 RMK A01 T00720054  RH  088%=      5-min Rain = 0
KTH1 171427Z 00009KT 07/05 A3017 RMK A01 T00720054  RH  088%=      5-min Rain = 0
KTH1 171428Z 36007KT 07/05 A3017 RMK A01 T00720054  RH  088%=      5-min Rain = 0
KTH1 171429Z 34006KT 07/05 A3017 RMK A01 T00720054  RH  088%=      5-min Rain = 0
KTH1 171430Z 34006KT 07/05 A3017 RMK A01 T00720054  RH  088%=      5-min Rain = 0
KTH1 171431Z 34006KT 07/06 A3017 RMK A01 T00720055  RH  089%=      5-min Rain = 0
KTH1 171432Z 34007KT 07/06 A3018 RMK A01 T00720055  RH  088%=      5-min Rain = 0
KTH1 171433Z 34008KT 07/05 A3018 RMK A01 T00720054  RH  088%=      5-min Rain = 0
KTH1 171434Z 34008G13KT 07/05 A3018 RMK A01 T00720054  RH  088%=      5-min Rain = 0
KTH1 171435Z 34009KT 07/05 A3018 RMK A01 T00720054  RH  088%=      5-min Rain = 0
KTH1 171436Z 34007KT 07/05 A3018 RMK A01 T00720053  RH  088%=      5-min Rain = 0
KTH1 171437Z 34007KT 07/05 A3018 RMK A01 T00720053  RH  088%=      5-min Rain = 0
KTH1 171438Z 33006KT 07/05 A3018 RMK A01 T00730054  RH  088%=      5-min Rain = 0
KTH1 171439Z 33007KT 07/05 A3018 RMK A01 T00720054  RH  088%=      5-min Rain = 0
KTH1 171440Z 33008KT 07/05 A3018 RMK A01 T00720053  RH  088%=      5-min Rain = 0
KTH1 171441Z 33008KT 07/05 A3018 RMK A01 T00730054  RH  088%=      5-min Rain = 0
KTH1 171442Z 34007KT 07/05 A3018 RMK A01 T00720053  RH  088%=      5-min Rain = 0
KTH1 171443Z 34008KT 07/05 A3018 RMK A01 T00720053  RH  088%=      5-min Rain = 0
KTH1 171444Z 34008KT 07/05 A3018 RMK A01 T00720053  RH  088%=      5-min Rain = 0
KTH1 171445Z 34008KT 07/05 A3018 RMK A01 T00720053  RH  088%=      5-min Rain = 0
KTH1 171446Z 34010KT 07/05 A3018 RMK A01 T00720053  RH  088%=      5-min Rain = 0
KTH1 171447Z 34008KT 07/05 A3018 RMK A01 T00720053  RH  088%=      5-min Rain = 0
KTH1 171448Z 35006KT 07/05 A3018 RMK A01 T00710052  RH  088%=      5-min Rain = 0
KTH1 171449Z 34006KT 07/05 A3018 RMK A01 T00710053  RH  088%=      5-min Rain = 0
KTH1 171450Z 33007KT 07/05 A3018 RMK A01 T00720053  RH  088%=      5-min Rain = 0
KTH1 171451Z 33008KT 07/05 A3018 RMK A01 T00720052  RH  088%=      5-min Rain = 0
KTH1 171452Z 34008KT 07/05 A3018 RMK A01 T00720052  RH  088%=      5-min Rain = 0
KTH1 171453Z 34010KT 07/05 A3018 RMK A01 T00710051  RH  087%=      5-min Rain = 0
KTH1 171454Z 33009KT 07/05 A3018 RMK A01 T00710050  RH  087%=      5-min Rain = 0
KTH1 171455Z 33009KT 07/05 A3018 RMK A01 T00700050  RH  087%=      5-min Rain = 0
KTH1 171456Z 33009KT 07/05 A3019 RMK A01 T00700050  RH  087%=      5-min Rain = 0
KTH1 171457Z 33007KT 07/05 A3019 RMK A01 T00700050  RH  087%=      5-min Rain = 0
KTH1 171458Z 33009KT 07/05 A3019 RMK A01 T00700050  RH  087%=      5-min Rain = 0
KTH1 171459Z 33009KT 07/05 A3019 RMK A01 T00690049  RH  087%=      5-min Rain = 0
KTH1 171500Z 33009KT 07/05 A3019 RMK A01 T00690049  RH  087%=      5-min Rain = 0
KTH1 171501Z 33010KT 07/05 A3019 RMK A01 T00690049  RH  087%=      5-min Rain = 0
KTH1 171502Z 33009KT 07/05 A3019 RMK A01 T00690048  RH  087%=      5-min Rain = 0
KTH1 171503Z 33011KT 07/05 A3019 RMK A01 T00680048  RH  087%=      5-min Rain = 0
KTH1 171504Z 33010KT 07/05 A3019 RMK A01 T00690048  RH  087%=      5-min Rain = 0
KTH1 171505Z 34007KT 07/05 A3019 RMK A01 T00690048  RH  087%=      5-min Rain = 0
KTH1 171506Z 33007KT 07/05 A3019 RMK A01 T00690048  RH  087%=      5-min Rain = 0
KTH1 171507Z 34009KT 07/05 A3019 RMK A01 T00690048  RH  087%=      5-min Rain = 0
KTH1 171508Z 34008KT 07/05 A3019 RMK A01 T00690048  RH  087%=      5-min Rain = 0
KTH1 171509Z 33008KT 07/05 A3019 RMK A01 T00690048  RH  087%=      5-min Rain = 0
KTH1 171510Z 34009KT 07/05 A3019 RMK A01 T00690048  RH  087%=      5-min Rain = 0
KTH1 171511Z 33007KT 07/05 A3019 RMK A01 T00690047  RH  086%=      5-min Rain = 0
KTH1 171512Z 33007KT 07/05 A302 RMK A01 T00690048  RH  086%=      5-min Rain = 0
KTH1 171513Z 33007KT 07/05 A302 RMK A01 T00690048  RH  087%=      5-min Rain = 0
KTH1 171514Z 33010KT 07/05 A3019 RMK A01 T00690048  RH  086%=      5-min Rain = 0
KTH1 171515Z 34007KT 07/05 A302 RMK A01 T00690047  RH  086%=      5-min Rain = 0
KTH1 171516Z 33008KT 07/05 A302 RMK A01 T00690048  RH  086%=      5-min Rain = 0
KTH1 171517Z 33008KT 07/05 A302 RMK A01 T00690048  RH  086%=      5-min Rain = 0
KTH1 171518Z 33009KT 07/05 A302 RMK A01 T00690048  RH  086%=      5-min Rain = 0
KTH1 171519Z 33007KT 07/05 A302 RMK A01 T00690047  RH  086%=      5-min Rain = 0
KTH1 171520Z 33009KT 07/05 A302 RMK A01 T00700048  RH  086%=      5-min Rain = 0
KTH1 171521Z 33008KT 07/05 A302 RMK A01 T00700047  RH  086%=      5-min Rain = 0
KTH1 171522Z 33010KT 07/05 A302 RMK A01 T00700047  RH  086%=      5-min Rain = 0
KTH1 171523Z 33009KT 07/05 A302 RMK A01 T00700047  RH  086%=      5-min Rain = 0
KTH1 171524Z 33007KT 07/05 A302 RMK A01 T00700048  RH  086%=      5-min Rain = 0
KTH1 171525Z 33008KT 07/05 A302 RMK A01 T00700048  RH  086%=      5-min Rain = 0
KTH1 171526Z 33009KT 07/05 A302 RMK A01 T00700047  RH  086%=      5-min Rain = 0
KTH1 171527Z 34008KT 07/05 A302 RMK A01 T00700047  RH  085%=      5-min Rain = 0
KTH1 171528Z 33007G13KT 07/05 A302 RMK A01 T00700048  RH  086%=      5-min Rain = 0
KTH1 171529Z 33008KT 07/05 A302 RMK A01 T00710048  RH  086%=      5-min Rain = 0
KTH1 171530Z 34008KT 07/05 A302 RMK A01 T00710048  RH  085%=      5-min Rain = 0
KTH1 171531Z 35009KT 07/05 A302 RMK A01 T00700047  RH  085%=      5-min Rain = 0
KTH1 171532Z 35008KT 07/05 A3021 RMK A01 T00710047  RH  085%=      5-min Rain = 0
KTH1 171533Z 35005KT 07/05 A3021 RMK A01 T00710048  RH  085%=      5-min Rain = 0
KTH1 171534Z 34008KT 07/05 A3021 RMK A01 T00710048  RH  085%=      5-min Rain = 0
KTH1 171535Z 34007KT 07/05 A3021 RMK A01 T00710047  RH  085%=      5-min Rain = 0
KTH1 171536Z 33007KT 07/05 A3021 RMK A01 T00710048  RH  085%=      5-min Rain = 0
KTH1 171537Z 32007KT 07/05 A3021 RMK A01 T00710048  RH  085%=      5-min Rain = 0
KTH1 171538Z 33009KT 07/05 A3021 RMK A01 T00710048  RH  085%=      5-min Rain = 0
KTH1 171539Z 34010KT 07/05 A3021 RMK A01 T00720048  RH  085%=      5-min Rain = 0
KTH1 171540Z 33008KT 07/05 A3021 RMK A01 T00710047  RH  085%=      5-min Rain = 0
KTH1 171541Z 35007KT 07/05 A3021 RMK A01 T00710046  RH  084%=      5-min Rain = 0
KTH1 171542Z 01007KT 07/05 A3021 RMK A01 T00700047  RH  085%=      5-min Rain = 0
KTH1 171543Z 00004KT 07/05 A3021 RMK A01 T00710048  RH  085%=      5-min Rain = 0
KTH1 171544Z 36007KT 07/05 A3021 RMK A01 T00710048  RH  085%=      5-min Rain = 0
KTH1 171545Z 35004KT 07/05 A3021 RMK A01 T00710047  RH  085%=      5-min Rain = 0
KTH1 171546Z 00005KT 07/05 A3021 RMK A01 T00720049  RH  085%=      5-min Rain = 0
KTH1 171547Z 36007KT 07/05 A3021 RMK A01 T00730049  RH  085%=      5-min Rain = 0
KTH1 171548Z 35005KT 07/05 A3021 RMK A01 T00730048  RH  084%=      5-min Rain = 0
KTH1 171549Z 36003KT 07/05 A3021 RMK A01 T00730048  RH  084%=      5-min Rain = 0
KTH1 171550Z 00007KT 07/05 A3021 RMK A01 T00730049  RH  085%=      5-min Rain = 0
KTH1 171551Z 01006KT 07/05 A3021 RMK A01 T00740049  RH  085%=      5-min Rain = 0
KTH1 171552Z 01005KT 07/05 A3021 RMK A01 T00740048  RH  084%=      5-min Rain = 0
KTH1 171553Z 00004KT 07/05 A3021 RMK A01 T00730048  RH  084%=      5-min Rain = 0
KTH1 171554Z 35004KT 07/05 A3021 RMK A01 T00740049  RH  084%=      5-min Rain = 0
KTH1 171555Z 34007KT 07/05 A3021 RMK A01 T00740049  RH  084%=      5-min Rain = 0
KTH1 171556Z 34007KT 07/05 A3021 RMK A01 T00740048  RH  084%=      5-min Rain = 0
KTH1 171557Z 35005KT 07/05 A3021 RMK A01 T00740048  RH  083%=      5-min Rain = 0
KTH1 171558Z 35007KT 08/05 A3021 RMK A01 T00750048  RH  084%=      5-min Rain = 0
KTH1 171559Z 35004KT 08/05 A3022 RMK A01 T00750049  RH  083%=      5-min Rain = 0
KTH1 171600Z 00006KT 08/05 A3022 RMK A01 T00750049  RH  083%=      5-min Rain = 0
KTH1 171601Z 36005KT 08/05 A3022 RMK A01 T00750048  RH  083%=      5-min Rain = 0
KTH1 171602Z 34007KT 08/05 A3022 RMK A01 T00750048  RH  083%=      5-min Rain = 0
KTH1 171603Z 34007KT 08/05 A3022 RMK A01 T00750046  RH  082%=      5-min Rain = 0
KTH1 171604Z 35005KT 07/05 A3022 RMK A01 T00740047  RH  083%=      5-min Rain = 0
KTH1 171605Z 34005KT 07/05 A3022 RMK A01 T00740048  RH  083%=      5-min Rain = 0
KTH1 171606Z 33005KT 07/05 A3022 RMK A01 T00740048  RH  083%=      5-min Rain = 0
KTH1 171607Z 33006KT 07/05 A3022 RMK A01 T00740048  RH  083%=      5-min Rain = 0
KTH1 171608Z 34008KT 07/05 A3022 RMK A01 T00740047  RH  083%=      5-min Rain = 0
KTH1 171609Z 34008KT 07/05 A3022 RMK A01 T00740048  RH  083%=      5-min Rain = 0
KTH1 171610Z 33007KT 07/05 A3022 RMK A01 T00740048  RH  083%=      5-min Rain = 0
KTH1 171611Z 33007KT 07/05 A3022 RMK A01 T00740049  RH  084%=      5-min Rain = 0
KTH1 171612Z 33004KT 08/05 A3022 RMK A01 T00750049  RH  083%=      5-min Rain = 0
KTH1 171613Z 34004KT 08/05 A3023 RMK A01 T00750049  RH  083%=      5-min Rain = 0
KTH1 171614Z 33005KT 08/05 A3023 RMK A01 T00750048  RH  083%=      5-min Rain = 0
KTH1 171615Z 34006KT 08/05 A3023 RMK A01 T00750048  RH  083%=      5-min Rain = 0
KTH1 171616Z 34006KT 08/05 A3023 RMK A01 T00760048  RH  082%=      5-min Rain = 0
KTH1 171617Z 36008KT 08/05 A3023 RMK A01 T00760048  RH  083%=      5-min Rain = 0
KTH1 171618Z 00009KT 08/05 A3023 RMK A01 T00760048  RH  083%=      5-min Rain = 0
KTH1 171619Z 01007KT 08/05 A3023 RMK A01 T00760048  RH  083%=      5-min Rain = 0
KTH1 171620Z 01007KT 08/05 A3023 RMK A01 T00760048  RH  083%=      5-min Rain = 0
KTH1 171621Z 00005KT 08/05 A3023 RMK A01 T00750047  RH  082%=      5-min Rain = 0
KTH1 171622Z 01006KT 08/05 A3023 RMK A01 T00750047  RH  082%=      5-min Rain = 0
KTH1 171623Z 00005KT 08/05 A3023 RMK A01 T00750047  RH  082%=      5-min Rain = 0
KTH1 171624Z 35003KT 08/05 A3023 RMK A01 T00750048  RH  083%=      5-min Rain = 0
KTH1 171625Z 02005KT 08/05 A3023 RMK A01 T00750049  RH  083%=      5-min Rain = 0
KTH1 171626Z 01005KT 08/05 A3023 RMK A01 T00760049  RH  083%=      5-min Rain = 0
KTH1 171627Z 32006KT 08/05 A3023 RMK A01 T00760050  RH  083%=      5-min Rain = 0
KTH1 171628Z 31006KT 08/05 A3024 RMK A01 T00770050  RH  083%=      5-min Rain = 0
KTH1 171629Z 31008KT 08/05 A3024 RMK A01 T00760049  RH  083%=      5-min Rain = 0
KTH1 171630Z 31008KT 08/05 A3024 RMK A01 T00760050  RH  084%=      5-min Rain = 0
KTH1 171631Z 32010KT 08/05 A3024 RMK A01 T00760051  RH  084%=      5-min Rain = 0
KTH1 171632Z 34007KT 08/05 A3024 RMK A01 T00750048  RH  083%=      5-min Rain = 0
KTH1 171633Z 32008KT 08/05 A3024 RMK A01 T00750048  RH  083%=      5-min Rain = 0
KTH1 171634Z 32008KT 08/05 A3024 RMK A01 T00750048  RH  083%=      5-min Rain = 0
KTH1 171635Z 33008KT 08/05 A3023 RMK A01 T00750049  RH  083%=      5-min Rain = 0
KTH1 171636Z 34008KT 08/05 A3024 RMK A01 T00750049  RH  083%=      5-min Rain = 0
KTH1 171637Z 35008KT 08/05 A3024 RMK A01 T00760048  RH  083%=      5-min Rain = 0
KTH1 171638Z 36008KT 08/05 A3024 RMK A01 T00760047  RH  082%=      5-min Rain = 0
KTH1 171639Z 36005KT 08/05 A3024 RMK A01 T00760048  RH  082%=      5-min Rain = 0
KTH1 171640Z 34003KT 08/05 A3024 RMK A01 T00760047  RH  082%=      5-min Rain = 0
KTH1 171641Z 34005KT 08/05 A3024 RMK A01 T00760047  RH  082%=      5-min Rain = 0
KTH1 171642Z 34005KT 08/05 A3024 RMK A01 T00760047  RH  082%=      5-min Rain = 0
KTH1 171643Z 33004KT 08/05 A3024 RMK A01 T00760047  RH  082%=      5-min Rain = 0
KTH1 171644Z 32004KT 08/05 A3024 RMK A01 T00770048  RH  082%=      5-min Rain = 0
KTH1 171645Z 32006KT 08/05 A3024 RMK A01 T00770047  RH  081%=      5-min Rain = 0
KTH1 171646Z 33004KT 08/05 A3024 RMK A01 T00770047  RH  081%=      5-min Rain = 0
KTH1 171647Z 34003KT 08/05 A3024 RMK A01 T00770049  RH  083%=      5-min Rain = 0
KTH1 171648Z 33007KT 08/05 A3024 RMK A01 T00780048  RH  082%=      5-min Rain = 0
KTH1 171649Z 33008KT 08/05 A3024 RMK A01 T00780047  RH  081%=      5-min Rain = 0
KTH1 171650Z 34006KT 08/05 A3024 RMK A01 T00780047  RH  081%=      5-min Rain = 0
KTH1 171651Z 34006KT 08/05 A3024 RMK A01 T00770048  RH  081%=      5-min Rain = 0
KTH1 171652Z 32008KT 08/05 A3024 RMK A01 T00780048  RH  081%=      5-min Rain = 0
KTH1 171653Z 32007KT 08/05 A3024 RMK A01 T00770047  RH  081%=      5-min Rain = 0
KTH1 171654Z 31007KT 08/05 A3024 RMK A01 T00770046  RH  081%=      5-min Rain = 0
KTH1 171655Z 31006KT 08/04 A3024 RMK A01 T00760044  RH  080%=      5-min Rain = 0
KTH1 171656Z 31005KT 08/05 A3024 RMK A01 T00750045  RH  081%=      5-min Rain = 0
KTH1 171657Z 32005KT 08/05 A3024 RMK A01 T00760046  RH  082%=      5-min Rain = 0
KTH1 171658Z 33005KT 08/05 A3024 RMK A01 T00750047  RH  082%=      5-min Rain = 0
KTH1 171659Z 33003KT 08/05 A3024 RMK A01 T00770050  RH  083%=      5-min Rain = 0
KTH1 171700Z 35006KT 08/05 A3024 RMK A01 T00800051  RH  082%=      5-min Rain = 0
KTH1 171701Z 34005KT 08/05 A3024 RMK A01 T00800048  RH  080%=      5-min Rain = 0
KTH1 171702Z 35005KT 08/05 A3024 RMK A01 T00800047  RH  080%=      5-min Rain = 0
KTH1 171703Z 00005KT 08/05 A3024 RMK A01 T00800046  RH  079%=      5-min Rain = 0
KTH1 171704Z 01002KT 08/05 A3024 RMK A01 T00800047  RH  080%=      5-min Rain = 0
KTH1 171705Z 32002KT 08/05 A3024 RMK A01 T00800046  RH  079%=      5-min Rain = 0
KTH1 171706Z 32006KT 08/05 A3024 RMK A01 T00800045  RH  079%=      5-min Rain = 0
KTH1 171707Z 32003KT 08/04 A3024 RMK A01 T00780043  RH  078%=      5-min Rain = 0
KTH1 171708Z 34003KT 08/04 A3024 RMK A01 T00770044  RH  079%=      5-min Rain = 0
KTH1 171709Z 33003KT 08/04 A3024 RMK A01 T00770043  RH  079%=      5-min Rain = 0
KTH1 171710Z 32004KT 08/04 A3024 RMK A01 T00760044  RH  080%=      5-min Rain = 0
KTH1 171711Z 33006KT 08/05 A3024 RMK A01 T00770045  RH  080%=      5-min Rain = 0
KTH1 171712Z 31005KT 08/05 A3024 RMK A01 T00780045  RH  080%=      5-min Rain = 0
KTH1 171713Z 31006KT 08/05 A3024 RMK A01 T00780046  RH  080%=      5-min Rain = 0
KTH1 171714Z 31005KT 08/05 A3024 RMK A01 T00780046  RH  080%=      5-min Rain = 0
KTH1 171715Z 32005KT 08/05 A3024 RMK A01 T00790046  RH  080%=      5-min Rain = 0
KTH1 171716Z 33006KT 08/05 A3024 RMK A01 T00780046  RH  080%=      5-min Rain = 0
KTH1 171717Z 33005KT 08/05 A3024 RMK A01 T00790046  RH  080%=      5-min Rain = 0
KTH1 171718Z 34004KT 08/05 A3024 RMK A01 T00780046  RH  080%=      5-min Rain = 0
KTH1 171719Z 35005KT 08/05 A3024 RMK A01 T00790046  RH  080%=      5-min Rain = 0
KTH1 171720Z 33004KT 08/05 A3024 RMK A01 T00790045  RH  079%=      5-min Rain = 0
KTH1 171721Z 33002KT 08/04 A3024 RMK A01 T00790043  RH  078%=      5-min Rain = 0
KTH1 171722Z 34001KT 08/04 A3024 RMK A01 T00780043  RH  079%=      5-min Rain = 0
KTH1 171723Z 36002KT 08/04 A3024 RMK A01 T00780044  RH  079%=      5-min Rain = 0
KTH1 171724Z 33003KT 08/05 A3023 RMK A01 T00810048  RH  080%=      5-min Rain = 0
KTH1 171725Z 33006KT 08/05 A3023 RMK A01 T00840048  RH  078%=      5-min Rain = 0
KTH1 171726Z 01003KT 09/05 A3023 RMK A01 T00850049  RH  078%=      5-min Rain = 0
KTH1 171727Z 02004KT 09/05 A3023 RMK A01 T00860048  RH  077%=      5-min Rain = 0
KTH1 171728Z 35005KT 09/05 A3023 RMK A01 T00860047  RH  076%=      5-min Rain = 0
KTH1 171729Z 36005KT 09/05 A3023 RMK A01 T00850046  RH  076%=      5-min Rain = 0
KTH1 171730Z 02003KT 09/05 A3023 RMK A01 T00850045  RH  076%=      5-min Rain = 0
KTH1 171731Z 03004KT 09/05 A3023 RMK A01 T00850047  RH  077%=      5-min Rain = 0
KTH1 171732Z 02005KT 09/05 A3023 RMK A01 T00870049  RH  077%=      5-min Rain = 0
KTH1 171733Z 33004KT 09/05 A3023 RMK A01 T00900051  RH  077%=      5-min Rain = 0
KTH1 171734Z 33004KT 09/05 A3023 RMK A01 T00920049  RH  075%=      5-min Rain = 0
KTH1 171735Z 32002KT 09/05 A3023 RMK A01 T00920047  RH  074%=      5-min Rain = 0
KTH1 171736Z 32000KT 09/05 A3023 RMK A01 T00910049  RH  075%=      5-min Rain = 0
KTH1 171737Z 00002KT 09/05 A3023 RMK A01 T00930050  RH  075%=      5-min Rain = 0
KTH1 171738Z 00003KT 09/05 A3023 RMK A01 T00940049  RH  073%=      5-min Rain = 0
KTH1 171739Z 34004KT 09/05 A3023 RMK A01 T00940049  RH  074%=      5-min Rain = 0
KTH1 171740Z 34004KT 09/05 A3023 RMK A01 T00940049  RH  073%=      5-min Rain = 0
KTH1 171741Z 34006KT 09/05 A3023 RMK A01 T00940048  RH  073%=      5-min Rain = 0
KTH1 171742Z 34003KT 09/05 A3023 RMK A01 T00930047  RH  073%=      5-min Rain = 0
KTH1 171743Z 01002KT 09/05 A3023 RMK A01 T00940051  RH  075%=      5-min Rain = 0
KTH1 171744Z 36003KT 10/05 A3023 RMK A01 T00960051  RH  073%=      5-min Rain = 0
KTH1 171745Z 35006KT 10/05 A3022 RMK A01 T00970049  RH  072%=      5-min Rain = 0
KTH1 171746Z 00005KT 10/05 A3022 RMK A01 T00970048  RH  072%=      5-min Rain = 0
KTH1 171747Z 36003KT 10/05 A3022 RMK A01 T00960048  RH  072%=      5-min Rain = 0
KTH1 171748Z 34003KT 10/05 A3022 RMK A01 T00950049  RH  073%=      5-min Rain = 0
KTH1 171749Z 34004KT 10/05 A3022 RMK A01 T00950048  RH  072%=      5-min Rain = 0
KTH1 171750Z 30006KT 10/05 A3022 RMK A01 T00960050  RH  073%=      5-min Rain = 0
KTH1 171751Z 32005KT 10/05 A3022 RMK A01 T00970052  RH  073%=      5-min Rain = 0
KTH1 171752Z 35005KT 10/05 A3022 RMK A01 T00970048  RH  072%=      5-min Rain = 0
KTH1 171753Z 36004KT 10/04 A3022 RMK A01 T00950044  RH  071%=      5-min Rain = 0
KTH1 171754Z 36004KT 09/04 A3022 RMK A01 T00930044  RH  072%=      5-min Rain = 0
KTH1 171755Z 01002KT 09/05 A3022 RMK A01 T00940049  RH  073%=      5-min Rain = 0
KTH1 171756Z 02003KT 10/05 A3022 RMK A01 T00960048  RH  072%=      5-min Rain = 0
KTH1 171757Z 03004KT 10/05 A3022 RMK A01 T00980047  RH  071%=      5-min Rain = 0
KTH1 171758Z 35005KT 10/05 A3022 RMK A01 T00970048  RH  071%=      5-min Rain = 0
KTH1 171759Z 35004KT 10/05 A3022 RMK A01 T00970049  RH  072%=      5-min Rain = 0
KTH1 171800Z 01003KT 10/05 A3022 RMK A01 T00980049  RH  071%=      5-min Rain = 0
KTH1 171801Z 01003KT 10/05 A3022 RMK A01 T00970048  RH  071%=      5-min Rain = 0
KTH1 171802Z 35003KT 10/05 A3022 RMK A01 T00970049  RH  072%=      5-min Rain = 0
KTH1 171803Z 35005KT 10/05 A3022 RMK A01 T00990050  RH  071%=      5-min Rain = 0
KTH1 171804Z 35002KT 10/05 A3021 RMK A01 T00980046  RH  070%=      5-min Rain = 0
KTH1 171805Z 36003KT 10/05 A3021 RMK A01 T00960047  RH  071%=      5-min Rain = 0
KTH1 171806Z 35002KT 10/05 A3021 RMK A01 T00950046  RH  071%=      5-min Rain = 0
KTH1 171807Z 33002KT 10/05 A3021 RMK A01 T00950047  RH  072%=      5-min Rain = 0
KTH1 171808Z 31003KT 10/05 A3021 RMK A01 T00960049  RH  073%=      5-min Rain = 0
KTH1 171809Z 30002KT 10/05 A3021 RMK A01 T00970048  RH  071%=      5-min Rain = 0
KTH1 171810Z 28003KT 10/05 A3021 RMK A01 T00970048  RH  072%=      5-min Rain = 0
KTH1 171811Z 29003KT 10/05 A3021 RMK A01 T00980050  RH  072%=      5-min Rain = 0
KTH1 171812Z 27004KT 10/05 A3021 RMK A01 T00990052  RH  073%=      5-min Rain = 0
KTH1 171813Z 26004KT 10/05 A302 RMK A01 T01000051  RH  072%=      5-min Rain = 0
KTH1 171814Z 27004KT 10/05 A302 RMK A01 T01000050  RH  071%=      5-min Rain = 0
KTH1 171815Z 29003KT 10/05 A302 RMK A01 T01000051  RH  072%=      5-min Rain = 0
KTH1 171816Z 30002KT 10/05 A302 RMK A01 T01020052  RH  071%=      5-min Rain = 0
KTH1 171817Z 35002KT 10/05 A302 RMK A01 T01020050  RH  070%=      5-min Rain = 0
KTH1 171818Z 33004KT 10/05 A302 RMK A01 T01030052  RH  071%=      5-min Rain = 0
KTH1 171819Z 35005KT 10/05 A302 RMK A01 T01040051  RH  070%=      5-min Rain = 0
KTH1 171820Z 00004KT 10/05 A302 RMK A01 T01040051  RH  070%=      5-min Rain = 0
KTH1 171821Z 34005KT 11/05 A302 RMK A01 T01060052  RH  069%=      5-min Rain = 0
KTH1 171822Z 31005KT 11/05 A302 RMK A01 T01060051  RH  069%=      5-min Rain = 0
KTH1 171823Z 30003KT 11/05 A302 RMK A01 T01050049  RH  068%=      5-min Rain = 0
KTH1 171824Z 29002KT 10/05 A302 RMK A01 T01040050  RH  069%=      5-min Rain = 0
KTH1 171825Z 35003KT 10/05 A302 RMK A01 T01040052  RH  070%=      5-min Rain = 0
KTH1 171826Z 34003KT 11/05 A302 RMK A01 T01050051  RH  069%=      5-min Rain = 0
KTH1 171827Z 36004KT 11/05 A302 RMK A01 T01060053  RH  070%=      5-min Rain = 0
KTH1 171828Z 35004KT 11/05 A302 RMK A01 T01080053  RH  069%=      5-min Rain = 0
KTH1 171829Z 36004KT 11/05 A3019 RMK A01 T01090052  RH  068%=      5-min Rain = 0
KTH1 171830Z 00002KT 11/05 A3019 RMK A01 T01080051  RH  068%=      5-min Rain = 0
KTH1 171831Z 35003KT 11/05 A3019 RMK A01 T01080049  RH  067%=      5-min Rain = 0
KTH1 171832Z 34004KT 11/05 A3019 RMK A01 T01080049  RH  067%=      5-min Rain = 0
KTH1 171833Z 32004KT 11/05 A3019 RMK A01 T01080051  RH  068%=      5-min Rain = 0
KTH1 171834Z 01004KT 11/05 A3019 RMK A01 T01090050  RH  067%=      5-min Rain = 0
KTH1 171835Z 01003KT 11/05 A3019 RMK A01 T01090049  RH  067%=      5-min Rain = 0
KTH1 171836Z 35002KT 11/05 A3018 RMK A01 T01090052  RH  068%=      5-min Rain = 0
KTH1 171837Z 36006KT 11/05 A3018 RMK A01 T01120054  RH  067%=      5-min Rain = 0
KTH1 171838Z 36006KT 11/05 A3018 RMK A01 T01130052  RH  066%=      5-min Rain = 0
KTH1 171839Z 35005KT 11/05 A3018 RMK A01 T01120051  RH  066%=      5-min Rain = 0
KTH1 171840Z 34006KT 11/05 A3018 RMK A01 T01110051  RH  066%=      5-min Rain = 0
KTH1 171841Z 34004KT 11/05 A3018 RMK A01 T01110050  RH  066%=      5-min Rain = 0
KTH1 171842Z 35004KT 11/05 A3018 RMK A01 T01110051  RH  066%=      5-min Rain = 0
KTH1 171843Z 35004G9KT 11/05 A3018 RMK A01 T01100051  RH  067%=      5-min Rain = 0
KTH1 171844Z 36006KT 11/05 A3018 RMK A01 T01100049  RH  066%=      5-min Rain = 0
KTH1 171845Z 01004KT 11/05 A3018 RMK A01 T01100049  RH  066%=      5-min Rain = 0
KTH1 171846Z 36007KT 11/05 A3018 RMK A01 T01100051  RH  067%=      5-min Rain = 0
KTH1 171847Z 36006KT 11/05 A3017 RMK A01 T01100050  RH  066%=      5-min Rain = 0
KTH1 171848Z 36005KT 11/05 A3017 RMK A01 T01110049  RH  066%=      5-min Rain = 0
KTH1 171849Z 35006KT 11/05 A3017 RMK A01 T01110049  RH  066%=      5-min Rain = 0
KTH1 171850Z 00003KT 11/05 A3017 RMK A01 T01100049  RH  066%=      5-min Rain = 0
KTH1 171851Z 36005KT 11/05 A3017 RMK A01 T01100049  RH  066%=      5-min Rain = 0
KTH1 171852Z 35007KT 11/05 A3017 RMK A01 T01090048  RH  066%=      5-min Rain = 0
KTH1 171853Z 36007KT 11/05 A3017 RMK A01 T01080050  RH  067%=      5-min Rain = 0
KTH1 171854Z 34005KT 11/05 A3017 RMK A01 T01090049  RH  066%=      5-min Rain = 0
KTH1 171855Z 01005KT 11/05 A3017 RMK A01 T01090051  RH  067%=      5-min Rain = 0
KTH1 171856Z 35008KT 11/05 A3017 RMK A01 T01120050  RH  066%=      5-min Rain = 0
KTH1 171857Z 35008KT 11/05 A3017 RMK A01 T01110047  RH  065%=      5-min Rain = 0
KTH1 171858Z 34006KT 11/05 A3017 RMK A01 T01110048  RH  065%=      5-min Rain = 0
KTH1 171859Z 35005KT 11/05 A3017 RMK A01 T01120050  RH  065%=      5-min Rain = 0
KTH1 171900Z 35006KT 11/05 A3017 RMK A01 T01140052  RH  066%=      5-min Rain = 0
KTH1 171901Z 00008KT 11/05 A3017 RMK A01 T01140051  RH  065%=      5-min Rain = 0
KTH1 171902Z 00006KT 11/05 A3017 RMK A01 T01130049  RH  065%=      5-min Rain = 0
KTH1 171903Z 00004KT 11/05 A3016 RMK A01 T01120050  RH  066%=      5-min Rain = 0
KTH1 171904Z 35003KT 11/05 A3016 RMK A01 T01130052  RH  066%=      5-min Rain = 0
KTH1 171905Z 35004KT 12/05 A3016 RMK A01 T01150053  RH  066%=      5-min Rain = 0
KTH1 171906Z 35005KT 12/06 A3016 RMK A01 T01180056  RH  066%=      5-min Rain = 0
KTH1 171907Z 00005KT 12/05 A3016 RMK A01 T01200052  RH  063%=      5-min Rain = 0
KTH1 171908Z 36005KT 12/05 A3016 RMK A01 T01190053  RH  064%=      5-min Rain = 0
KTH1 171909Z 01006KT 12/05 A3016 RMK A01 T01190052  RH  063%=      5-min Rain = 0
KTH1 171910Z 03005KT 12/05 A3016 RMK A01 T01170051  RH  064%=      5-min Rain = 0
KTH1 171911Z 02005KT 12/05 A3016 RMK A01 T01160051  RH  065%=      5-min Rain = 0
KTH1 171912Z 36005KT 12/05 A3016 RMK A01 T01150050  RH  064%=      5-min Rain = 0
KTH1 171913Z 36006KT 12/05 A3016 RMK A01 T01150052  RH  065%=      5-min Rain = 0
KTH1 171914Z 35007KT 12/05 A3016 RMK A01 T01160053  RH  065%=      5-min Rain = 0
KTH1 171915Z 34006KT 12/05 A3016 RMK A01 T01180053  RH  065%=      5-min Rain = 0
KTH1 171916Z 34006KT 12/05 A3016 RMK A01 T01190054  RH  064%=      5-min Rain = 0
KTH1 171917Z 34007KT 12/05 A3016 RMK A01 T01190053  RH  064%=      5-min Rain = 0
KTH1 171918Z 34007KT 12/06 A3016 RMK A01 T01190055  RH  065%=      5-min Rain = 0
KTH1 171919Z 35007KT 12/06 A3016 RMK A01 T01190055  RH  064%=      5-min Rain = 0
KTH1 171920Z 36007KT 12/05 A3016 RMK A01 T01200053  RH  063%=      5-min Rain = 0
KTH1 171921Z 36005KT 12/05 A3016 RMK A01 T01190053  RH  064%=      5-min Rain = 0
KTH1 171922Z 01004KT 12/05 A3016 RMK A01 T01190053  RH  064%=      5-min Rain = 0
KTH1 171923Z 01004KT 12/05 A3015 RMK A01 T01190052  RH  064%=      5-min Rain = 0
KTH1 171924Z 35003KT 12/05 A3015 RMK A01 T01180052  RH  064%=      5-min Rain = 0
KTH1 171925Z 35005KT 12/05 A3015 RMK A01 T01180052  RH  064%=      5-min Rain = 0
KTH1 171926Z 00006KT 12/05 A3015 RMK A01 T01190053  RH  064%=      5-min Rain = 0
KTH1 171927Z 35007KT 12/05 A3015 RMK A01 T01210052  RH  063%=      5-min Rain = 0
KTH1 171928Z 35007KT 12/05 A3015 RMK A01 T01210053  RH  063%=      5-min Rain = 0
KTH1 171929Z 00008KT 12/05 A3015 RMK A01 T01210053  RH  063%=      5-min Rain = 0
KTH1 171930Z 34006KT 12/05 A3015 RMK A01 T01200053  RH  063%=      5-min Rain = 0
KTH1 171931Z 33005KT 12/06 A3015 RMK A01 T01210055  RH  064%=      5-min Rain = 0
KTH1 171932Z 35004KT 12/06 A3015 RMK A01 T01230057  RH  064%=      5-min Rain = 0
KTH1 171933Z 02004KT 13/06 A3015 RMK A01 T01260058  RH  063%=      5-min Rain = 0
KTH1 171934Z 35004KT 13/06 A3015 RMK A01 T01260055  RH  062%=      5-min Rain = 0
KTH1 171935Z 01004KT 13/05 A3015 RMK A01 T01250054  RH  062%=      5-min Rain = 0
KTH1 171936Z 32004KT 12/06 A3015 RMK A01 T01240055  RH  062%=      5-min Rain = 0
KTH1 171937Z 00008KT 13/06 A3015 RMK A01 T01250056  RH  063%=      5-min Rain = 0
KTH1 171938Z 02006KT 13/06 A3015 RMK A01 T01260055  RH  062%=      5-min Rain = 0
KTH1 171939Z 02004KT 13/06 A3015 RMK A01 T01260055  RH  062%=      5-min Rain = 0
KTH1 171940Z 02005KT 13/06 A3015 RMK A01 T01270056  RH  062%=      5-min Rain = 0
KTH1 171941Z 02007KT 13/06 A3015 RMK A01 T01260055  RH  062%=      5-min Rain = 0
KTH1 171942Z 02005KT 13/06 A3015 RMK A01 T01270055  RH  061%=      5-min Rain = 0
KTH1 171943Z 02006KT 13/06 A3014 RMK A01 T01280055  RH  061%=      5-min Rain = 0
KTH1 171944Z 03005KT 13/05 A3014 RMK A01 T01270054  RH  061%=      5-min Rain = 0
KTH1 171945Z 04005KT 13/06 A3014 RMK A01 T01260057  RH  062%=      5-min Rain = 0
KTH1 171946Z 35006KT 13/06 A3014 RMK A01 T01270056  RH  062%=      5-min Rain = 0
KTH1 171947Z 02004KT 13/05 A3014 RMK A01 T01270054  RH  061%=      5-min Rain = 0
KTH1 171948Z 03005KT 13/06 A3014 RMK A01 T01270057  RH  062%=      5-min Rain = 0
KTH1 171949Z 00003KT 13/06 A3014 RMK A01 T01270055  RH  061%=      5-min Rain = 0
KTH1 171950Z 35006KT 13/06 A3014 RMK A01 T01270057  RH  062%=      5-min Rain = 0
KTH1 171951Z 35006KT 13/06 A3014 RMK A01 T01280055  RH  061%=      5-min Rain = 0
KTH1 171952Z 33003KT 13/06 A3014 RMK A01 T01280055  RH  061%=      5-min Rain = 0
KTH1 171953Z 34003KT 13/06 A3014 RMK A01 T01290056  RH  061%=      5-min Rain = 0
KTH1 171954Z 34004KT 13/06 A3014 RMK A01 T01310056  RH  060%=      5-min Rain = 0
KTH1 171955Z 02002KT 13/06 A3014 RMK A01 T01310055  RH  060%=      5-min Rain = 0
KTH1 171956Z 01002KT 13/06 A3014 RMK A01 T01320055  RH  059%=      5-min Rain = 0
KTH1 171957Z 01003KT 13/05 A3014 RMK A01 T01330052  RH  058%=      5-min Rain = 0
KTH1 171958Z 04004KT 13/05 A3014 RMK A01 T01320051  RH  058%=      5-min Rain = 0
KTH1 171959Z 03005KT 13/05 A3014 RMK A01 T01320052  RH  059%=      5-min Rain = 0
KTH1 172000Z 04004KT 13/05 A3014 RMK A01 T01300051  RH  059%=      5-min Rain = 0
KTH1 172001Z 36003KT 13/05 A3014 RMK A01 T01280052  RH  060%=      5-min Rain = 0
KTH1 172002Z 35003KT 13/05 A3014 RMK A01 T01290053  RH  060%=      5-min Rain = 0
KTH1 172003Z 01004KT 13/05 A3014 RMK A01 T01290052  RH  059%=      5-min Rain = 0
KTH1 172004Z 04004KT 13/06 A3014 RMK A01 T01310055  RH  060%=      5-min Rain = 0
KTH1 172005Z 04004KT 13/05 A3014 RMK A01 T01330054  RH  059%=      5-min Rain = 0
KTH1 172006Z 05003KT 13/05 A3014 RMK A01 T01320054  RH  059%=      5-min Rain = 0
KTH1 172007Z 02004KT 13/06 A3014 RMK A01 T01320055  RH  060%=      5-min Rain = 0
KTH1 172008Z 05004KT 13/05 A3014 RMK A01 T01330053  RH  058%=      5-min Rain = 0
KTH1 172009Z 05003KT 13/06 A3014 RMK A01 T01330056  RH  060%=      5-min Rain = 0
KTH1 172010Z 03002KT 14/06 A3014 RMK A01 T01350057  RH  059%=      5-min Rain = 0
KTH1 172011Z 02003KT 14/06 A3014 RMK A01 T01360056  RH  058%=      5-min Rain = 0
KTH1 172012Z 35003KT 14/05 A3014 RMK A01 T01360054  RH  058%=      5-min Rain = 0
KTH1 172013Z 00002KT 14/05 A3014 RMK A01 T01350054  RH  058%=      5-min Rain = 0
KTH1 172014Z 36001KT 14/05 A3014 RMK A01 T01350054  RH  058%=      5-min Rain = 0
KTH1 172015Z 33001KT 14/06 A3014 RMK A01 T01360055  RH  058%=      5-min Rain = 0
KTH1 172016Z 26001KT 14/06 A3014 RMK A01 T01360056  RH  058%=      5-min Rain = 0
KTH1 172017Z 30001KT 14/06 A3014 RMK A01 T01380058  RH  059%=      5-min Rain = 0
KTH1 172018Z 34003KT 14/06 A3014 RMK A01 T01390057  RH  058%=      5-min Rain = 0
KTH1 172019Z 34002KT 14/06 A3014 RMK A01 T01400056  RH  057%=      5-min Rain = 0
KTH1 172020Z 31001KT 14/05 A3014 RMK A01 T01380051  RH  056%=      5-min Rain = 0
KTH1 172021Z 35003KT 14/05 A3014 RMK A01 T01360053  RH  057%=      5-min Rain = 0
KTH1 172022Z 02003KT 14/05 A3014 RMK A01 T01360052  RH  057%=      5-min Rain = 0
KTH1 172023Z 05003KT 14/05 A3014 RMK A01 T01360053  RH  057%=      5-min Rain = 0
KTH1 172024Z 06003KT 14/05 A3014 RMK A01 T01360054  RH  058%=      5-min Rain = 0
KTH1 172025Z 07003KT 14/05 A3014 RMK A01 T01350052  RH  057%=      5-min Rain = 0
KTH1 172026Z 08001KT 13/05 A3014 RMK A01 T01330052  RH  058%=      5-min Rain = 0
KTH1 172027Z 09001KT 13/05 A3014 RMK A01 T01320052  RH  058%=      5-min Rain = 0
KTH1 172028Z 06002KT 13/05 A3014 RMK A01 T01330054  RH  059%=      5-min Rain = 0
KTH1 172029Z 06003KT 14/05 A3014 RMK A01 T01350054  RH  058%=      5-min Rain = 0
KTH1 172030Z 06002KT 13/05 A3014 RMK A01 T01340050  RH  057%=      5-min Rain = 0
KTH1 172031Z 05003KT 13/05 A3014 RMK A01 T01340053  RH  058%=      5-min Rain = 0
KTH1 172032Z 04003KT 13/05 A3013 RMK A01 T01340052  RH  058%=      5-min Rain = 0
KTH1 172033Z 01002KT 13/05 A3013 RMK A01 T01330051  RH  058%=      5-min Rain = 0
KTH1 172034Z 35001KT 13/05 A3013 RMK A01 T01320052  RH  058%=      5-min Rain = 0
KTH1 172035Z 22000KT 13/05 A3013 RMK A01 T01330052  RH  058%=      5-min Rain = 0
KTH1 172036Z 21001KT 14/05 A3013 RMK A01 T01350054  RH  058%=      5-min Rain = 0
KTH1 172037Z 13001KT 14/05 A3013 RMK A01 T01360053  RH  057%=      5-min Rain = 0
KTH1 172038Z 08003KT 14/06 A3013 RMK A01 T01380058  RH  058%=      5-min Rain = 0
KTH1 172039Z 07002KT 14/05 A3013 RMK A01 T01380053  RH  056%=      5-min Rain = 0
KTH1 172040Z 09003KT 14/05 A3013 RMK A01 T01350052  RH  057%=      5-min Rain = 0
KTH1 172041Z 08002KT 13/05 A3013 RMK A01 T01340053  RH  058%=      5-min Rain = 0
KTH1 172042Z 08001KT 14/05 A3013 RMK A01 T01350052  RH  057%=      5-min Rain = 0
KTH1 172043Z 20001KT 14/05 A3013 RMK A01 T01350051  RH  057%=      5-min Rain = 0
KTH1 172044Z 18001KT 14/05 A3013 RMK A01 T01360052  RH  057%=      5-min Rain = 0
KTH1 172045Z 35000KT 14/06 A3013 RMK A01 T01370055  RH  058%=      5-min Rain = 0
KTH1 172046Z 10002KT 14/06 A3013 RMK A01 T01400058  RH  058%=      5-min Rain = 0
KTH1 172047Z 11002KT 14/06 A3013 RMK A01 T01420055  RH  056%=      5-min Rain = 0
KTH1 172048Z 13002KT 14/05 A3013 RMK A01 T01410053  RH  055%=      5-min Rain = 0
KTH1 172049Z 11001KT 14/06 A3013 RMK A01 T01400055  RH  057%=      5-min Rain = 0
KTH1 172050Z 06001KT 14/06 A3013 RMK A01 T01400056  RH  057%=      5-min Rain = 0
KTH1 172051Z 06001KT 14/06 A3013 RMK A01 T01410055  RH  056%=      5-min Rain = 0
KTH1 172052Z 08002KT 14/06 A3013 RMK A01 T01410055  RH  056%=      5-min Rain = 0
KTH1 172053Z 08002KT 14/06 A3013 RMK A01 T01420058  RH  057%=      5-min Rain = 0
KTH1 172054Z 07000KT 14/06 A3013 RMK A01 T01430055  RH  056%=      5-min Rain = 0
KTH1 172055Z 01001KT 14/06 A3013 RMK A01 T01430056  RH  056%=      5-min Rain = 0
KTH1 172056Z 35003KT 14/06 A3013 RMK A01 T01440057  RH  056%=      5-min Rain = 0
KTH1 172057Z 34002KT 14/05 A3013 RMK A01 T01440054  RH  055%=      5-min Rain = 0
KTH1 172058Z 31003KT 14/05 A3013 RMK A01 T01420054  RH  055%=      5-min Rain = 0
KTH1 172059Z 33001KT 14/06 A3013 RMK A01 T01410055  RH  056%=      5-min Rain = 0
KTH1 172100Z 04002KT 14/06 A3013 RMK A01 T01420061  RH  058%=      5-min Rain = 0
KTH1 172101Z 04004KT 14/06 A3013 RMK A01 T01440060  RH  057%=      5-min Rain = 0
KTH1 172102Z 05004KT 14/06 A3013 RMK A01 T01430057  RH  056%=      5-min Rain = 0
KTH1 172103Z 06005KT 14/06 A3013 RMK A01 T01420059  RH  057%=      5-min Rain = 0
KTH1 172104Z 06005KT 14/06 A3013 RMK A01 T01410059  RH  058%=      5-min Rain = 0
KTH1 172105Z 05005KT 14/06 A3013 RMK A01 T01400058  RH  057%=      5-min Rain = 0
KTH1 172106Z 07004KT 14/06 A3013 RMK A01 T01390055  RH  057%=      5-min Rain = 0
KTH1 172107Z 05004KT 14/06 A3013 RMK A01 T01380055  RH  058%=      5-min Rain = 0
KTH1 172108Z 06003KT 14/06 A3013 RMK A01 T01370056  RH  058%=      5-min Rain = 0
KTH1 172109Z 07003KT 14/06 A3013 RMK A01 T01370056  RH  058%=      5-min Rain = 0
KTH1 172110Z 12001KT 14/06 A3013 RMK A01 T01370055  RH  058%=      5-min Rain = 0
KTH1 172111Z 18000KT 14/06 A3013 RMK A01 T01370056  RH  058%=      5-min Rain = 0
KTH1 172112Z 35000KT 14/05 A3013 RMK A01 T01370054  RH  057%=      5-min Rain = 0
KTH1 172113Z 04004KT 14/06 A3013 RMK A01 T01390056  RH  057%=      5-min Rain = 0
KTH1 172114Z 03003KT 14/06 A3013 RMK A01 T01390057  RH  057%=      5-min Rain = 0
KTH1 172115Z 04002KT 14/06 A3013 RMK A01 T01390056  RH  057%=      5-min Rain = 0
KTH1 172116Z 02005KT 14/06 A3013 RMK A01 T01390057  RH  058%=      5-min Rain = 0
KTH1 172117Z 03004KT 14/06 A3013 RMK A01 T01390057  RH  058%=      5-min Rain = 0
KTH1 172118Z 05004KT 14/06 A3013 RMK A01 T01380056  RH  058%=      5-min Rain = 0
KTH1 172119Z 04002KT 14/06 A3013 RMK A01 T01370055  RH  058%=      5-min Rain = 0
KTH1 172120Z 04000KT 14/06 A3013 RMK A01 T01360055  RH  058%=      5-min Rain = 0
KTH1 172121Z 07000KT 14/06 A3013 RMK A01 T01370055  RH  058%=      5-min Rain = 0
KTH1 172122Z 08006KT 14/06 A3013 RMK A01 T01380058  RH  058%=      5-min Rain = 0
KTH1 172123Z 08006KT 14/06 A3013 RMK A01 T01390060  RH  059%=      5-min Rain = 0
KTH1 172124Z 08006KT 14/06 A3013 RMK A01 T01390061  RH  059%=      5-min Rain = 0
KTH1 172125Z 09005KT 14/06 A3013 RMK A01 T01390059  RH  058%=      5-min Rain = 0
KTH1 172126Z 08004KT 14/06 A3013 RMK A01 T01380060  RH  059%=      5-min Rain = 0
KTH1 172127Z 08004KT 14/06 A3013 RMK A01 T01380061  RH  060%=      5-min Rain = 0
KTH1 172128Z 09004KT 14/06 A3012 RMK A01 T01390060  RH  059%=      5-min Rain = 0
KTH1 172129Z 10004KT 14/06 A3012 RMK A01 T01400062  RH  059%=      5-min Rain = 0
KTH1 172130Z 12003KT 14/06 A3012 RMK A01 T01410060  RH  058%=      5-min Rain = 0
KTH1 172131Z 11002KT 14/06 A3012 RMK A01 T01410059  RH  058%=      5-min Rain = 0
KTH1 172132Z 08002KT 14/06 A3013 RMK A01 T01420058  RH  057%=      5-min Rain = 0
KTH1 172133Z 11002KT 14/06 A3013 RMK A01 T01420057  RH  057%=      5-min Rain = 0
KTH1 172134Z 09002KT 14/06 A3013 RMK A01 T01410058  RH  057%=      5-min Rain = 0
KTH1 172135Z 06004KT 14/06 A3013 RMK A01 T01400059  RH  058%=      5-min Rain = 0
KTH1 172136Z 06005KT 14/06 A3013 RMK A01 T01410061  RH  059%=      5-min Rain = 0
KTH1 172137Z 06005KT 14/06 A3013 RMK A01 T01420060  RH  058%=      5-min Rain = 0
KTH1 172138Z 07004KT 14/06 A3013 RMK A01 T01410058  RH  057%=      5-min Rain = 0
KTH1 172139Z 09001KT 14/06 A3013 RMK A01 T01390055  RH  057%=      5-min Rain = 0
KTH1 172140Z 00001KT 14/06 A3013 RMK A01 T01380057  RH  058%=      5-min Rain = 0
KTH1 172141Z 35001KT 14/06 A3013 RMK A01 T01390056  RH  057%=      5-min Rain = 0
KTH1 172142Z 02002KT 14/06 A3013 RMK A01 T01410057  RH  057%=      5-min Rain = 0
KTH1 172143Z 06002KT 14/06 A3013 RMK A01 T01410056  RH  057%=      5-min Rain = 0
KTH1 172144Z 09003KT 14/06 A3013 RMK A01 T01410059  RH  058%=      5-min Rain = 0
KTH1 172145Z 08003KT 14/06 A3013 RMK A01 T01410057  RH  057%=      5-min Rain = 0
KTH1 172146Z 08002KT 14/06 A3013 RMK A01 T01400059  RH  058%=      5-min Rain = 0
KTH1 172147Z 06001KT 14/06 A3013 RMK A01 T01400059  RH  058%=      5-min Rain = 0
KTH1 172148Z 04002KT 14/06 A3013 RMK A01 T01410058  RH  057%=      5-min Rain = 0
KTH1 172149Z 00003KT 14/06 A3013 RMK A01 T01420058  RH  057%=      5-min Rain = 0
KTH1 172150Z 03003KT 14/06 A3013 RMK A01 T01430058  RH  056%=      5-min Rain = 0
KTH1 172151Z 03002KT 14/05 A3013 RMK A01 T01420054  RH  055%=      5-min Rain = 0
KTH1 172152Z 02002KT 14/05 A3013 RMK A01 T01410054  RH  056%=      5-min Rain = 0
KTH1 172153Z 36003KT 14/06 A3013 RMK A01 T01400055  RH  056%=      5-min Rain = 0
KTH1 172154Z 36003KT 14/05 A3013 RMK A01 T01400054  RH  056%=      5-min Rain = 0
KTH1 172155Z 35001KT 14/05 A3013 RMK A01 T01400053  RH  056%=      5-min Rain = 0
KTH1 172156Z 32000KT 14/05 A3013 RMK A01 T01400054  RH  056%=      5-min Rain = 0
KTH1 172157Z 10001KT 14/06 A3013 RMK A01 T01400056  RH  057%=      5-min Rain = 0
KTH1 172158Z 08001KT 14/06 A3013 RMK A01 T01430059  RH  057%=      5-min Rain = 0
KTH1 172159Z 09001KT 14/06 A3013 RMK A01 T01440058  RH  056%=      5-min Rain = 0
KTH1 172200Z 10003KT 15/06 A3013 RMK A01 T01450058  RH  056%=      5-min Rain = 0
KTH1 172201Z 10003KT 15/06 A3013 RMK A01 T01460059  RH  056%=      5-min Rain = 0
KTH1 172202Z 10003KT 14/06 A3013 RMK A01 T01440057  RH  056%=      5-min Rain = 0
KTH1 172203Z 09004KT 14/06 A3013 RMK A01 T01420057  RH  057%=      5-min Rain = 0
KTH1 172204Z 10003KT 14/06 A3013 RMK A01 T01410056  RH  057%=      5-min Rain = 0
KTH1 172205Z 11002KT 14/06 A3013 RMK A01 T01400058  RH  058%=      5-min Rain = 0
KTH1 172206Z 10002KT 14/06 A3013 RMK A01 T01410059  RH  058%=      5-min Rain = 0
KTH1 172207Z 09003KT 14/06 A3013 RMK A01 T01410056  RH  057%=      5-min Rain = 0
KTH1 172208Z 10005KT 14/06 A3013 RMK A01 T01410058  RH  057%=      5-min Rain = 0
KTH1 172209Z 10005KT 14/06 A3013 RMK A01 T01410058  RH  057%=      5-min Rain = 0
KTH1 172210Z 09003KT 14/06 A3013 RMK A01 T01400057  RH  057%=      5-min Rain = 0
KTH1 172211Z 10002KT 14/06 A3013 RMK A01 T01390057  RH  058%=      5-min Rain = 0
KTH1 172212Z 12003KT 14/06 A3013 RMK A01 T01390058  RH  058%=      5-min Rain = 0
KTH1 172213Z 12004KT 14/06 A3013 RMK A01 T01400059  RH  058%=      5-min Rain = 0
KTH1 172214Z 10004KT 14/06 A3013 RMK A01 T01420061  RH  058%=      5-min Rain = 0
KTH1 172215Z 08003KT 14/06 A3013 RMK A01 T01410056  RH  056%=      5-min Rain = 0
KTH1 172216Z 08003KT 14/06 A3013 RMK A01 T01400057  RH  058%=      5-min Rain = 0
KTH1 172217Z 11002KT 14/06 A3013 RMK A01 T01400060  RH  059%=      5-min Rain = 0
KTH1 172218Z 18002KT 14/06 A3013 RMK A01 T01410059  RH  058%=      5-min Rain = 0
KTH1 172219Z 19002KT 14/06 A3013 RMK A01 T01410058  RH  057%=      5-min Rain = 0
KTH1 172220Z 17001KT 14/06 A3013 RMK A01 T01420057  RH  057%=      5-min Rain = 0
KTH1 172221Z 15003KT 14/06 A3013 RMK A01 T01430060  RH  057%=      5-min Rain = 0
KTH1 172222Z 11004KT 15/06 A3013 RMK A01 T01450061  RH  057%=      5-min Rain = 0
KTH1 172223Z 13003KT 14/06 A3013 RMK A01 T01440060  RH  057%=      5-min Rain = 0
KTH1 172224Z 12002KT 14/06 A3013 RMK A01 T01420059  RH  057%=      5-min Rain = 0
KTH1 172225Z 14004KT 14/06 A3013 RMK A01 T01420060  RH  058%=      5-min Rain = 0
KTH1 172226Z 15005KT 14/06 A3013 RMK A01 T01410059  RH  057%=      5-min Rain = 0
KTH1 172227Z 16003KT 14/06 A3014 RMK A01 T01410058  RH  057%=      5-min Rain = 0
KTH1 172228Z 13003KT 14/06 A3014 RMK A01 T01410058  RH  057%=      5-min Rain = 0
KTH1 172229Z 14003KT 14/06 A3014 RMK A01 T01410058  RH  057%=      5-min Rain = 0
KTH1 172230Z 12002KT 14/06 A3013 RMK A01 T01410056  RH  057%=      5-min Rain = 0
KTH1 172231Z 12002KT 14/06 A3013 RMK A01 T01410057  RH  057%=      5-min Rain = 0
KTH1 172232Z 11002KT 14/06 A3013 RMK A01 T01410056  RH  057%=      5-min Rain = 0
KTH1 172233Z 10002KT 14/06 A3013 RMK A01 T01400058  RH  057%=      5-min Rain = 0
KTH1 172234Z 10002KT 14/06 A3013 RMK A01 T01400056  RH  057%=      5-min Rain = 0
KTH1 172235Z 10003KT 14/06 A3013 RMK A01 T01400056  RH  057%=      5-min Rain = 0
KTH1 172236Z 12002KT 14/06 A3013 RMK A01 T01390057  RH  057%=      5-min Rain = 0
KTH1 172237Z 08000KT 14/06 A3013 RMK A01 T01400055  RH  057%=      5-min Rain = 0
KTH1 172238Z 13001KT 14/06 A3013 RMK A01 T01400056  RH  057%=      5-min Rain = 0
KTH1 172239Z 17002KT 14/06 A3013 RMK A01 T01400056  RH  057%=      5-min Rain = 0
KTH1 172240Z 16003KT 14/06 A3013 RMK A01 T01410055  RH  056%=      5-min Rain = 0
KTH1 172241Z 15003KT 14/06 A3013 RMK A01 T01420056  RH  056%=      5-min Rain = 0
KTH1 172242Z 15004KT 14/06 A3013 RMK A01 T01420057  RH  057%=      5-min Rain = 0
KTH1 172243Z 13004KT 14/06 A3013 RMK A01 T01420059  RH  057%=      5-min Rain = 0
KTH1 172244Z 13004KT 14/06 A3013 RMK A01 T01420060  RH  058%=      5-min Rain = 0
KTH1 172245Z 12005KT 14/06 A3013 RMK A01 T01400059  RH  058%=      5-min Rain = 0
KTH1 172246Z 13004KT 14/06 A3013 RMK A01 T01390058  RH  058%=      5-min Rain = 0
KTH1 172247Z 14003KT 14/06 A3013 RMK A01 T01380058  RH  058%=      5-min Rain = 0
KTH1 172248Z 14003KT 14/06 A3013 RMK A01 T01370059  RH  059%=      5-min Rain = 0
KTH1 172249Z 14003KT 14/06 A3013 RMK A01 T01380057  RH  058%=      5-min Rain = 0
KTH1 172250Z 14003KT 14/06 A3013 RMK A01 T01370057  RH  058%=      5-min Rain = 0
KTH1 172251Z 14004KT 14/06 A3013 RMK A01 T01370058  RH  059%=      5-min Rain = 0
KTH1 172252Z 14004KT 14/06 A3013 RMK A01 T01360057  RH  059%=      5-min Rain = 0
KTH1 172253Z 14005KT 14/06 A3013 RMK A01 T01360058  RH  059%=      5-min Rain = 0
KTH1 172254Z 14004KT 14/06 A3012 RMK A01 T01350057  RH  059%=      5-min Rain = 0
KTH1 172255Z 13004KT 13/06 A3012 RMK A01 T01340058  RH  060%=      5-min Rain = 0
KTH1 172256Z 12004KT 13/06 A3012 RMK A01 T01330059  RH  061%=      5-min Rain = 0
KTH1 172257Z 12003KT 13/06 A3012 RMK A01 T01320059  RH  061%=      5-min Rain = 0
KTH1 172258Z 12004KT 13/06 A3012 RMK A01 T01310058  RH  061%=      5-min Rain = 0
KTH1 172259Z 12003KT 13/06 A3012 RMK A01 T01300057  RH  061%=      5-min Rain = 0
KTH1 172300Z 12002KT 13/06 A3012 RMK A01 T01300057  RH  061%=      5-min Rain = 0
KTH1 172301Z 12003KT 13/06 A3012 RMK A01 T01290058  RH  062%=      5-min Rain = 0
KTH1 172302Z 11002KT 13/06 A3012 RMK A01 T01290058  RH  062%=      5-min Rain = 0
KTH1 172303Z 11002KT 13/06 A3012 RMK A01 T01290057  RH  062%=      5-min Rain = 0
KTH1 172304Z 11002KT 13/06 A3012 RMK A01 T01290059  RH  062%=      5-min Rain = 0
KTH1 172305Z 12003KT 13/06 A3012 RMK A01 T01290059  RH  062%=      5-min Rain = 0
KTH1 172306Z 12003KT 13/06 A3012 RMK A01 T01280058  RH  062%=      5-min Rain = 0
KTH1 172307Z 11004KT 13/06 A3012 RMK A01 T01280058  RH  063%=      5-min Rain = 0
KTH1 172308Z 11004KT 13/06 A3012 RMK A01 T01270059  RH  063%=      5-min Rain = 0
KTH1 172309Z 11004KT 13/06 A3012 RMK A01 T01270060  RH  063%=      5-min Rain = 0
KTH1 172310Z 11003KT 13/06 A3012 RMK A01 T01270059  RH  063%=      5-min Rain = 0
KTH1 172311Z 11003KT 13/06 A3012 RMK A01 T01260060  RH  064%=      5-min Rain = 0
KTH1 172312Z 11003KT 13/06 A3012 RMK A01 T01260060  RH  064%=      5-min Rain = 0
KTH1 172313Z 11003KT 13/06 A3012 RMK A01 T01260060  RH  064%=      5-min Rain = 0
KTH1 172314Z 11004KT 13/06 A3012 RMK A01 T01260061  RH  065%=      5-min Rain = 0
KTH1 172315Z 12004KT 13/06 A3012 RMK A01 T01250061  RH  065%=      5-min Rain = 0
KTH1 172316Z 12004KT 13/06 A3012 RMK A01 T01250060  RH  065%=      5-min Rain = 0
KTH1 172317Z 12004KT 13/06 A3012 RMK A01 T01250060  RH  065%=      5-min Rain = 0
KTH1 172318Z 12004KT 13/06 A3012 RMK A01 T01250061  RH  065%=      5-min Rain = 0
KTH1 172319Z 11004KT 12/06 A3012 RMK A01 T01240060  RH  065%=      5-min Rain = 0
KTH1 172320Z 11004KT 12/06 A3012 RMK A01 T01240061  RH  065%=      5-min Rain = 0
KTH1 172321Z 11004KT 12/06 A3012 RMK A01 T01240060  RH  065%=      5-min Rain = 0
KTH1 172322Z 11003KT 12/06 A3012 RMK A01 T01240060  RH  065%=      5-min Rain = 0
KTH1 172323Z 12003KT 12/06 A3012 RMK A01 T01230060  RH  065%=      5-min Rain = 0
KTH1 172324Z 12003KT 12/06 A3012 RMK A01 T01230061  RH  066%=      5-min Rain = 0
KTH1 172325Z 12004KT 12/06 A3012 RMK A01 T01230061  RH  066%=      5-min Rain = 0
KTH1 172326Z 12003KT 12/06 A3012 RMK A01 T01220060  RH  066%=      5-min Rain = 0
KTH1 172327Z 13003KT 12/06 A3012 RMK A01 T01220062  RH  066%=      5-min Rain = 0
KTH1 172328Z 14003KT 12/06 A3012 RMK A01 T01220062  RH  067%=      5-min Rain = 0
KTH1 172329Z 14004KT 12/06 A3012 RMK A01 T01220061  RH  067%=      5-min Rain = 0
KTH1 172330Z 13004KT 12/06 A3012 RMK A01 T01220061  RH  067%=      5-min Rain = 0
KTH1 172331Z 14004KT 12/06 A3012 RMK A01 T01210061  RH  067%=      5-min Rain = 0
KTH1 172332Z 13004KT 12/06 A3012 RMK A01 T01210061  RH  067%=      5-min Rain = 0
KTH1 172333Z 13003KT 12/06 A3012 RMK A01 T01200061  RH  067%=      5-min Rain = 0
KTH1 172334Z 13004KT 12/06 A3012 RMK A01 T01190060  RH  067%=      5-min Rain = 0
KTH1 172335Z 13004KT 12/06 A3012 RMK A01 T01180060  RH  067%=      5-min Rain = 0
KTH1 172336Z 13004KT 12/06 A3012 RMK A01 T01180060  RH  067%=      5-min Rain = 0
KTH1 172337Z 12003KT 12/06 A3012 RMK A01 T01170059  RH  068%=      5-min Rain = 0
KTH1 172338Z 12003KT 12/06 A3012 RMK A01 T01160059  RH  068%=      5-min Rain = 0
KTH1 172339Z 12004KT 12/06 A3012 RMK A01 T01150059  RH  068%=      5-min Rain = 0
KTH1 172340Z 12004KT 12/06 A3012 RMK A01 T01150058  RH  068%=      5-min Rain = 0
KTH1 172341Z 12003KT 11/06 A3012 RMK A01 T01140059  RH  069%=      5-min Rain = 0
KTH1 172342Z 12003KT 11/06 A3012 RMK A01 T01140059  RH  069%=      5-min Rain = 0
KTH1 172343Z 12004KT 11/06 A3012 RMK A01 T01140059  RH  069%=      5-min Rain = 0
KTH1 172344Z 12004KT 11/06 A3012 RMK A01 T01130058  RH  069%=      5-min Rain = 0
KTH1 172345Z 12003KT 11/06 A3012 RMK A01 T01130058  RH  069%=      5-min Rain = 0
KTH1 172346Z 11003KT 11/06 A3012 RMK A01 T01120058  RH  069%=      5-min Rain = 0
KTH1 172347Z 12003KT 11/06 A3012 RMK A01 T01120058  RH  069%=      5-min Rain = 0
KTH1 172348Z 12004KT 11/06 A3012 RMK A01 T01120058  RH  069%=      5-min Rain = 0
KTH1 172349Z 12003KT 11/06 A3012 RMK A01 T01120058  RH  069%=      5-min Rain = 0
KTH1 172350Z 13003KT 11/06 A3012 RMK A01 T01110058  RH  070%=      5-min Rain = 0
KTH1 172351Z 13003KT 11/06 A3012 RMK A01 T01100058  RH  070%=      5-min Rain = 0
KTH1 172352Z 14004KT 11/06 A3012 RMK A01 T01090058  RH  071%=      5-min Rain = 0
KTH1 172353Z 14004KT 11/06 A3012 RMK A01 T01080057  RH  071%=      5-min Rain = 0
KTH1 172354Z 14005KT 11/06 A3012 RMK A01 T01070057  RH  071%=      5-min Rain = 0
KTH1 172355Z 14004KT 11/06 A3012 RMK A01 T01060057  RH  072%=      5-min Rain = 0
KTH1 172356Z 14005KT 11/06 A3012 RMK A01 T01050057  RH  072%=      5-min Rain = 0
KTH1 172357Z 14004KT 10/06 A3012 RMK A01 T01040057  RH  073%=      5-min Rain = 0
KTH1 172358Z 13004KT 10/06 A3012 RMK A01 T01040057  RH  073%=      5-min Rain = 0
KTH1 172359Z 13004KT 10/06 A3012 RMK A01 T01030057  RH  073%=      5-min Rain = 0
KTH1 180000Z 13004KT 10/06 A3012 RMK A01 T01030057  RH  073%=      5-min Rain = 0
KTH1 180001Z 13005KT 10/06 A3012 RMK A01 T01030057  RH  073%=      5-min Rain = 0
KTH1 180002Z 13005KT 10/06 A3012 RMK A01 T01030057  RH  073%=      5-min Rain = 0
KTH1 180003Z 13005KT 10/06 A3012 RMK A01 T01020057  RH  073%=      5-min Rain = 0
KTH1 180004Z 13004KT 10/06 A3012 RMK A01 T01020057  RH  073%=      5-min Rain = 0
KTH1 180005Z 12004KT 10/06 A3012 RMK A01 T01010056  RH  074%=      5-min Rain = 0
KTH1 180006Z 12005KT 10/06 A3012 RMK A01 T01010057  RH  074%=      5-min Rain = 0
KTH1 180007Z 12005KT 10/06 A3011 RMK A01 T01010057  RH  074%=      5-min Rain = 0
KTH1 180008Z 12005KT 10/06 A3011 RMK A01 T01000057  RH  074%=      5-min Rain = 0
KTH1 180009Z 12005KT 10/06 A3012 RMK A01 T00990056  RH  075%=      5-min Rain = 0
KTH1 180010Z 12004KT 10/06 A3012 RMK A01 T00990056  RH  075%=      5-min Rain = 0
KTH1 180011Z 12004KT 10/06 A3012 RMK A01 T00990056  RH  075%=      5-min Rain = 0
KTH1 180012Z 12004KT 10/06 A3012 RMK A01 T00980056  RH  075%=      5-min Rain = 0
KTH1 180013Z 12004KT 10/06 A3012 RMK A01 T00980056  RH  075%=      5-min Rain = 0
KTH1 180014Z 12004KT 10/06 A3012 RMK A01 T00980056  RH  075%=      5-min Rain = 0
KTH1 180015Z 12004KT 10/06 A3012 RMK A01 T00980056  RH  075%=      5-min Rain = 0
KTH1 180016Z 12004KT 10/06 A3012 RMK A01 T00980056  RH  075%=      5-min Rain = 0
KTH1 180017Z 11004KT 10/06 A3012 RMK A01 T00970056  RH  075%=      5-min Rain = 0
KTH1 180018Z 11004KT 10/06 A3012 RMK A01 T00980056  RH  075%=      5-min Rain = 0
KTH1 180019Z 11004KT 10/06 A3012 RMK A01 T00980055  RH  075%=      5-min Rain = 0
KTH1 180020Z 11003KT 10/06 A3012 RMK A01 T00980055  RH  075%=      5-min Rain = 0
KTH1 180021Z 11003KT 10/06 A3011 RMK A01 T00980056  RH  075%=      5-min Rain = 0
KTH1 180022Z 11004KT 10/06 A3011 RMK A01 T00980056  RH  075%=      5-min Rain = 0
KTH1 180023Z 11004KT 10/06 A3011 RMK A01 T00970056  RH  075%=      5-min Rain = 0
KTH1 180024Z 11004KT 10/06 A3011 RMK A01 T00970055  RH  075%=      5-min Rain = 0
KTH1 180025Z 11004KT 10/06 A3011 RMK A01 T00960055  RH  075%=      5-min Rain = 0
KTH1 180026Z 11004KT 10/06 A3011 RMK A01 T00970055  RH  075%=      5-min Rain = 0
KTH1 180027Z 11004KT 10/05 A3011 RMK A01 T00960054  RH  075%=      5-min Rain = 0
KTH1 180028Z 12004KT 10/05 A3011 RMK A01 T00960054  RH  075%=      5-min Rain = 0
KTH1 180029Z 11004KT 10/05 A3011 RMK A01 T00960054  RH  075%=      5-min Rain = 0
KTH1 180030Z 11004KT 10/05 A3011 RMK A01 T00950054  RH  075%=      5-min Rain = 0
KTH1 180031Z 11004KT 10/05 A3011 RMK A01 T00950053  RH  075%=      5-min Rain = 0
KTH1 180032Z 11003KT 10/05 A3011 RMK A01 T00950053  RH  075%=      5-min Rain = 0
KTH1 180033Z 11004KT 10/05 A3011 RMK A01 T00950053  RH  075%=      5-min Rain = 0
KTH1 180034Z 10004KT 10/05 A3011 RMK A01 T00950053  RH  075%=      5-min Rain = 0
KTH1 180035Z 10003KT 10/05 A3011 RMK A01 T00950052  RH  075%=      5-min Rain = 0
KTH1 180036Z 10004KT 10/05 A3011 RMK A01 T00950052  RH  075%=      5-min Rain = 0
KTH1 180037Z 10004KT 09/05 A3011 RMK A01 T00940052  RH  075%=      5-min Rain = 0
KTH1 180038Z 11004KT 09/05 A3011 RMK A01 T00940052  RH  075%=      5-min Rain = 0
KTH1 180039Z 11004KT 09/05 A3012 RMK A01 T00940052  RH  075%=      5-min Rain = 0
KTH1 180040Z 12004KT 09/05 A3012 RMK A01 T00940051  RH  075%=      5-min Rain = 0
KTH1 180041Z 12004KT 09/05 A3012 RMK A01 T00940051  RH  074%=      5-min Rain = 0
KTH1 180042Z 12004KT 09/05 A3012 RMK A01 T00940051  RH  074%=      5-min Rain = 0
KTH1 180043Z 13004KT 09/05 A3012 RMK A01 T00940052  RH  075%=      5-min Rain = 0
KTH1 180044Z 13004KT 09/05 A3012 RMK A01 T00930052  RH  076%=      5-min Rain = 0
KTH1 180045Z 13004KT 09/05 A3012 RMK A01 T00920052  RH  076%=      5-min Rain = 0
KTH1 180046Z 13004KT 09/05 A3012 RMK A01 T00910052  RH  077%=      5-min Rain = 0
KTH1 180047Z 14004KT 09/05 A3012 RMK A01 T00900052  RH  077%=      5-min Rain = 0
KTH1 180048Z 13004KT 09/05 A3012 RMK A01 T00890051  RH  077%=      5-min Rain = 0
KTH1 180049Z 13004KT 09/05 A3012 RMK A01 T00880050  RH  077%=      5-min Rain = 0
KTH1 180050Z 14004KT 09/05 A3012 RMK A01 T00870050  RH  077%=      5-min Rain = 0
KTH1 180051Z 14004KT 09/05 A3012 RMK A01 T00870049  RH  077%=      5-min Rain = 0
KTH1 180052Z 14004KT 09/05 A3012 RMK A01 T00870049  RH  077%=      5-min Rain = 0
KTH1 180053Z 14004KT 09/05 A3012 RMK A01 T00870049  RH  077%=      5-min Rain = 0
KTH1 180054Z 14004KT 09/05 A3012 RMK A01 T00870049  RH  077%=      5-min Rain = 0
KTH1 180055Z 14004KT 09/05 A3012 RMK A01 T00870049  RH  077%=      5-min Rain = 0
KTH1 180056Z 14004KT 09/05 A3012 RMK A01 T00860050  RH  078%=      5-min Rain = 0
KTH1 180057Z 15004KT 09/05 A3012 RMK A01 T00860051  RH  078%=      5-min Rain = 0
KTH1 180058Z 15004KT 09/05 A3012 RMK A01 T00860051  RH  078%=      5-min Rain = 0
KTH1 180059Z 15004KT 09/05 A3013 RMK A01 T00860051  RH  079%=      5-min Rain = 0
KTH1 180100Z 15004KT 09/05 A3013 RMK A01 T00860051  RH  079%=      5-min Rain = 0
KTH1 180101Z 15004KT 09/05 A3013 RMK A01 T00860051  RH  079%=      5-min Rain = 0
KTH1 180102Z 15004KT 09/05 A3013 RMK A01 T00860051  RH  079%=      5-min Rain = 0
KTH1 180103Z 15004KT 09/05 A3013 RMK A01 T00850050  RH  079%=      5-min Rain = 0
KTH1 180104Z 15004KT 09/05 A3012 RMK A01 T00850050  RH  079%=      5-min Rain = 0
KTH1 180105Z 14004KT 09/05 A3012 RMK A01 T00850050  RH  079%=      5-min Rain = 0
KTH1 180106Z 14003KT 08/05 A3012 RMK A01 T00840050  RH  079%=      5-min Rain = 0
KTH1 180107Z 13003KT 08/05 A3012 RMK A01 T00840050  RH  079%=      5-min Rain = 0
KTH1 180108Z 13003KT 08/05 A3012 RMK A01 T00840050  RH  079%=      5-min Rain = 0
KTH1 180109Z 13004KT 08/05 A3012 RMK A01 T00840049  RH  078%=      5-min Rain = 0
KTH1 180110Z 13004KT 08/05 A3012 RMK A01 T00840049  RH  078%=      5-min Rain = 0
KTH1 180111Z 13004KT 08/05 A3012 RMK A01 T00840049  RH  078%=      5-min Rain = 0
KTH1 180112Z 13004KT 09/05 A3012 RMK A01 T00850049  RH  078%=      5-min Rain = 0
KTH1 180113Z 12004KT 09/05 A3012 RMK A01 T00850050  RH  078%=      5-min Rain = 0
KTH1 180114Z 12004KT 09/05 A3012 RMK A01 T00860050  RH  078%=      5-min Rain = 0
KTH1 180115Z 12004KT 09/05 A3012 RMK A01 T00870051  RH  078%=      5-min Rain = 0
KTH1 180116Z 12004KT 09/05 A3012 RMK A01 T00870051  RH  078%=      5-min Rain = 0
KTH1 180117Z 12004KT 09/05 A3012 RMK A01 T00880051  RH  078%=      5-min Rain = 0
KTH1 180118Z 12004KT 09/05 A3012 RMK A01 T00880051  RH  078%=      5-min Rain = 0
KTH1 180119Z 12004KT 09/05 A3012 RMK A01 T00880051  RH  078%=      5-min Rain = 0
KTH1 180120Z 12004KT 09/05 A3012 RMK A01 T00880051  RH  078%=      5-min Rain = 0
KTH1 180121Z 12004KT 09/05 A3012 RMK A01 T00870050  RH  078%=      5-min Rain = 0
KTH1 180122Z 12005KT 09/05 A3012 RMK A01 T00870051  RH  078%=      5-min Rain = 0
KTH1 180123Z 12005KT 09/05 A3012 RMK A01 T00860051  RH  078%=      5-min Rain = 0
KTH1 180124Z 12005KT 09/05 A3012 RMK A01 T00860051  RH  079%=      5-min Rain = 0
KTH1 180125Z 13004KT 09/05 A3012 RMK A01 T00850051  RH  079%=      5-min Rain = 0
KTH1 180126Z 13004KT 09/05 A3012 RMK A01 T00850051  RH  079%=      5-min Rain = 0
KTH1 180127Z 13004KT 09/05 A3011 RMK A01 T00850051  RH  079%=      5-min Rain = 0
KTH1 180128Z 13004KT 09/05 A3011 RMK A01 T00850051  RH  079%=      5-min Rain = 0
KTH1 180129Z 14003KT 08/05 A3011 RMK A01 T00840051  RH  079%=      5-min Rain = 0
KTH1 180130Z 14003KT 08/05 A3011 RMK A01 T00840051  RH  080%=      5-min Rain = 0
KTH1 180131Z 14003KT 08/05 A3011 RMK A01 T00830050  RH  080%=      5-min Rain = 0
KTH1 180132Z 14003KT 08/05 A3011 RMK A01 T00820050  RH  080%=      5-min Rain = 0
KTH1 180133Z 14004KT 08/05 A3011 RMK A01 T00820050  RH  080%=      5-min Rain = 0
KTH1 180134Z 13004KT 08/05 A3011 RMK A01 T00820050  RH  081%=      5-min Rain = 0
KTH1 180135Z 13004KT 08/05 A3011 RMK A01 T00820051  RH  081%=      5-min Rain = 0
KTH1 180136Z 13004KT 08/05 A3011 RMK A01 T00820052  RH  081%=      5-min Rain = 0
KTH1 180137Z 13005KT 08/05 A3011 RMK A01 T00820052  RH  081%=      5-min Rain = 0
KTH1 180138Z 13004KT 08/05 A3011 RMK A01 T00820051  RH  081%=      5-min Rain = 0
KTH1 180139Z 12004KT 08/05 A3011 RMK A01 T00820052  RH  081%=      5-min Rain = 0
KTH1 180140Z 12004KT 08/05 A3011 RMK A01 T00830053  RH  081%=      5-min Rain = 0
KTH1 180141Z 12004KT 08/05 A3011 RMK A01 T00830052  RH  081%=      5-min Rain = 0
KTH1 180142Z 13003KT 08/05 A3011 RMK A01 T00830052  RH  081%=      5-min Rain = 0
KTH1 180143Z 12003KT 08/05 A3011 RMK A01 T00830052  RH  081%=      5-min Rain = 0
KTH1 180144Z 13003KT 08/05 A3011 RMK A01 T00830053  RH  081%=      5-min Rain = 0
KTH1 180145Z 13003KT 08/05 A3011 RMK A01 T00820052  RH  081%=      5-min Rain = 0
KTH1 180146Z 13003KT 08/05 A3011 RMK A01 T00820052  RH  081%=      5-min Rain = 0
KTH1 180147Z 14003KT 08/05 A3011 RMK A01 T00810051  RH  081%=      5-min Rain = 0
KTH1 180148Z 14003KT 08/05 A3011 RMK A01 T00810051  RH  082%=      5-min Rain = 0
KTH1 180149Z 15003KT 08/05 A3011 RMK A01 T00800051  RH  082%=      5-min Rain = 0
KTH1 180150Z 14002KT 08/05 A3011 RMK A01 T00800052  RH  082%=      5-min Rain = 0
KTH1 180151Z 14002KT 08/05 A3011 RMK A01 T00800051  RH  082%=      5-min Rain = 0
KTH1 180152Z 14003KT 08/05 A3011 RMK A01 T00800051  RH  082%=      5-min Rain = 0
KTH1 180153Z 14003KT 08/05 A3011 RMK A01 T00800051  RH  082%=      5-min Rain = 0
KTH1 180154Z 15003KT 08/05 A3011 RMK A01 T00800051  RH  082%=      5-min Rain = 0
KTH1 180155Z 15003KT 08/05 A3011 RMK A01 T00800051  RH  082%=      5-min Rain = 0
KTH1 180156Z 15003KT 08/05 A3011 RMK A01 T00790050  RH  082%=      5-min Rain = 0
KTH1 180157Z 15003KT 08/05 A3011 RMK A01 T00790050  RH  082%=      5-min Rain = 0
KTH1 180158Z 15003KT 08/05 A3011 RMK A01 T00780050  RH  083%=      5-min Rain = 0
KTH1 180159Z 15004KT 08/05 A3011 RMK A01 T00780050  RH  083%=      5-min Rain = 0
KTH1 180200Z 15004KT 08/05 A3011 RMK A01 T00770050  RH  083%=      5-min Rain = 0
KTH1 180201Z 15004KT 08/05 A3011 RMK A01 T00760050  RH  084%=      5-min Rain = 0
KTH1 180202Z 15004KT 08/05 A3011 RMK A01 T00760050  RH  084%=      5-min Rain = 0
KTH1 180203Z 15005KT 08/05 A3011 RMK A01 T00760051  RH  084%=      5-min Rain = 0
KTH1 180204Z 15004KT 08/05 A3011 RMK A01 T00750050  RH  084%=      5-min Rain = 0
KTH1 180205Z 15004KT 08/05 A3011 RMK A01 T00750050  RH  084%=      5-min Rain = 0
KTH1 180206Z 15004KT 07/05 A3011 RMK A01 T00740050  RH  085%=      5-min Rain = 0
KTH1 180207Z 15004KT 07/05 A3011 RMK A01 T00740051  RH  085%=      5-min Rain = 0
KTH1 180208Z 14004KT 07/05 A3011 RMK A01 T00740051  RH  085%=      5-min Rain = 0
KTH1 180209Z 14003KT 07/05 A3011 RMK A01 T00740050  RH  085%=      5-min Rain = 0
KTH1 180210Z 14003KT 07/05 A3011 RMK A01 T00740051  RH  085%=      5-min Rain = 0
KTH1 180211Z 13003KT 07/05 A3011 RMK A01 T00740051  RH  085%=      5-min Rain = 0
KTH1 180212Z 13003KT 08/05 A3011 RMK A01 T00750051  RH  085%=      5-min Rain = 0
KTH1 180213Z 13003KT 08/05 A3011 RMK A01 T00750051  RH  084%=      5-min Rain = 0
KTH1 180214Z 13003KT 08/05 A3011 RMK A01 T00750050  RH  084%=      5-min Rain = 0
KTH1 180215Z 13002KT 08/05 A3011 RMK A01 T00750050  RH  084%=      5-min Rain = 0
KTH1 180216Z 13002KT 08/05 A3011 RMK A01 T00750050  RH  084%=      5-min Rain = 0
KTH1 180217Z 13002KT 08/05 A3011 RMK A01 T00750050  RH  084%=      5-min Rain = 0
KTH1 180218Z 13002KT 08/05 A3011 RMK A01 T00750050  RH  084%=      5-min Rain = 0
KTH1 180219Z 13002KT 08/05 A3011 RMK A01 T00750050  RH  084%=      5-min Rain = 0
KTH1 180220Z 13002KT 07/05 A3011 RMK A01 T00740050  RH  084%=      5-min Rain = 0
KTH1 180221Z 14002KT 07/05 A3011 RMK A01 T00740050  RH  085%=      5-min Rain = 0
KTH1 180222Z 14002KT 07/05 A3011 RMK A01 T00740050  RH  085%=      5-min Rain = 0
KTH1 180223Z 15002KT 07/05 A3011 RMK A01 T00740050  RH  084%=      5-min Rain = 0
KTH1 180224Z 16002KT 08/05 A3011 RMK A01 T00750050  RH  084%=      5-min Rain = 0
KTH1 180225Z 17002KT 08/05 A3011 RMK A01 T00760050  RH  084%=      5-min Rain = 0
KTH1 180226Z 17002KT 08/05 A3011 RMK A01 T00760050  RH  084%=      5-min Rain = 0
KTH1 180227Z 17001KT 08/05 A3011 RMK A01 T00760050  RH  084%=      5-min Rain = 0
KTH1 180228Z 16002KT 08/05 A3011 RMK A01 T00760050  RH  083%=      5-min Rain = 0
KTH1 180229Z 16002KT 08/05 A3011 RMK A01 T00760049  RH  083%=      5-min Rain = 0
KTH1 180230Z 15002KT 08/05 A3011 RMK A01 T00760049  RH  083%=      5-min Rain = 0
KTH1 180231Z 14002KT 08/05 A3011 RMK A01 T00760049  RH  083%=      5-min Rain = 0
KTH1 180232Z 15002KT 08/05 A301 RMK A01 T00750049  RH  083%=      5-min Rain = 0
KTH1 180233Z 15003KT 08/05 A301 RMK A01 T00760049  RH  083%=      5-min Rain = 0
KTH1 180234Z 14003KT 08/05 A301 RMK A01 T00750048  RH  083%=      5-min Rain = 0
KTH1 180235Z 14003KT 08/05 A301 RMK A01 T00750048  RH  083%=      5-min Rain = 0
KTH1 180236Z 14003KT 07/05 A301 RMK A01 T00740048  RH  084%=      5-min Rain = 0
KTH1 180237Z 14003KT 07/05 A301 RMK A01 T00730047  RH  084%=      5-min Rain = 0
KTH1 180238Z 14003KT 07/05 A301 RMK A01 T00730048  RH  084%=      5-min Rain = 0
KTH1 180239Z 14003KT 07/05 A301 RMK A01 T00730048  RH  084%=      5-min Rain = 0
KTH1 180240Z 14003KT 07/05 A301 RMK A01 T00720047  RH  084%=      5-min Rain = 0
KTH1 180241Z 14003KT 07/05 A301 RMK A01 T00720047  RH  084%=      5-min Rain = 0
KTH1 180242Z 15002KT 07/05 A301 RMK A01 T00720048  RH  085%=      5-min Rain = 0
KTH1 180243Z 15003KT 07/05 A301 RMK A01 T00720048  RH  085%=      5-min Rain = 0
KTH1 180244Z 15003KT 07/05 A301 RMK A01 T00720048  RH  085%=      5-min Rain = 0
KTH1 180245Z 15003KT 07/05 A301 RMK A01 T00720048  RH  085%=      5-min Rain = 0
KTH1 180246Z 15003KT 07/05 A301 RMK A01 T00720048  RH  085%=      5-min Rain = 0
KTH1 180247Z 15004KT 07/05 A301 RMK A01 T00710047  RH  085%=      5-min Rain = 0
KTH1 180248Z 15003KT 07/05 A301 RMK A01 T00710047  RH  085%=      5-min Rain = 0
KTH1 180249Z 14003KT 07/05 A301 RMK A01 T00710047  RH  085%=      5-min Rain = 0
KTH1 180250Z 14003KT 07/05 A301 RMK A01 T00700047  RH  085%=      5-min Rain = 0
KTH1 180251Z 13003KT 07/05 A301 RMK A01 T00700047  RH  085%=      5-min Rain = 0
KTH1 180252Z 12003KT 07/05 A3009 RMK A01 T00700047  RH  085%=      5-min Rain = 0
KTH1 180253Z 12003KT 07/05 A3009 RMK A01 T00700047  RH  085%=      5-min Rain = 0
KTH1 180254Z 12004KT 07/05 A3009 RMK A01 T00700048  RH  086%=      5-min Rain = 0
KTH1 180255Z 12003KT 07/05 A3009 RMK A01 T00710048  RH  086%=      5-min Rain = 0
KTH1 180256Z 12003KT 07/05 A3009 RMK A01 T00720048  RH  085%=      5-min Rain = 0
KTH1 180257Z 12003KT 07/05 A3009 RMK A01 T00720048  RH  085%=      5-min Rain = 0
KTH1 180258Z 11003KT 07/05 A3009 RMK A01 T00720048  RH  085%=      5-min Rain = 0
KTH1 180259Z 12004KT 07/05 A3009 RMK A01 T00720048  RH  085%=      5-min Rain = 0
KTH1 180300Z 13004KT 07/05 A3009 RMK A01 T00720047  RH  085%=      5-min Rain = 0
KTH1 180301Z 13004KT 07/05 A3009 RMK A01 T00710047  RH  085%=      5-min Rain = 0
KTH1 180302Z 13004KT 07/05 A3009 RMK A01 T00700048  RH  085%=      5-min Rain = 0
KTH1 180303Z 13004KT 07/05 A3009 RMK A01 T00700048  RH  086%=      5-min Rain = 0
KTH1 180304Z 12004KT 07/05 A3009 RMK A01 T00700047  RH  085%=      5-min Rain = 0
KTH1 180305Z 13005KT 07/05 A3009 RMK A01 T00700047  RH  085%=      5-min Rain = 0
KTH1 180306Z 13004KT 07/05 A3009 RMK A01 T00710048  RH  085%=      5-min Rain = 0
KTH1 180307Z 13005KT 07/05 A3009 RMK A01 T00720048  RH  085%=      5-min Rain = 0
KTH1 180308Z 12005KT 07/05 A3009 RMK A01 T00720048  RH  085%=      5-min Rain = 0
KTH1 180309Z 13005KT 07/05 A3009 RMK A01 T00730049  RH  085%=      5-min Rain = 0
KTH1 180310Z 12005KT 07/05 A3009 RMK A01 T00730049  RH  084%=      5-min Rain = 0
KTH1 180311Z 12004KT 07/05 A3009 RMK A01 T00730049  RH  084%=      5-min Rain = 0
KTH1 180312Z 12004KT 07/05 A3009 RMK A01 T00740049  RH  084%=      5-min Rain = 0
KTH1 180313Z 12005KT 07/05 A3009 RMK A01 T00740049  RH  084%=      5-min Rain = 0
KTH1 180314Z 12004KT 07/05 A3009 RMK A01 T00740049  RH  084%=      5-min Rain = 0
KTH1 180315Z 13004KT 07/05 A3009 RMK A01 T00740049  RH  084%=      5-min Rain = 0
KTH1 180316Z 13004KT 07/05 A3009 RMK A01 T00740048  RH  084%=      5-min Rain = 0
KTH1 180317Z 13004KT 07/05 A3008 RMK A01 T00740049  RH  084%=      5-min Rain = 0
KTH1 180318Z 13004KT 07/05 A3008 RMK A01 T00730048  RH  084%=      5-min Rain = 0
KTH1 180319Z 13004KT 07/05 A3008 RMK A01 T00730048  RH  084%=      5-min Rain = 0
KTH1 180320Z 13004KT 07/05 A3008 RMK A01 T00730048  RH  084%=      5-min Rain = 0
KTH1 180321Z 13003KT 07/05 A3008 RMK A01 T00720047  RH  084%=      5-min Rain = 0
KTH1 180322Z 14003KT 07/05 A3008 RMK A01 T00720048  RH  085%=      5-min Rain = 0
KTH1 180323Z 13003KT 07/05 A3009 RMK A01 T00720047  RH  084%=      5-min Rain = 0
KTH1 180324Z 14003KT 07/05 A3009 RMK A01 T00710046  RH  084%=      5-min Rain = 0
KTH1 180325Z 13002KT 07/05 A3009 RMK A01 T00700046  RH  085%=      5-min Rain = 0
KTH1 180326Z 14002KT 07/05 A3009 RMK A01 T00690046  RH  085%=      5-min Rain = 0
KTH1 180327Z 13002KT 07/05 A3009 RMK A01 T00690046  RH  085%=      5-min Rain = 0
KTH1 180328Z 12002KT 07/05 A3009 RMK A01 T00690046  RH  086%=      5-min Rain = 0
KTH1 180329Z 12003KT 07/05 A3009 RMK A01 T00690046  RH  086%=      5-min Rain = 0
KTH1 180330Z 13003KT 07/05 A3009 RMK A01 T00690046  RH  086%=      5-min Rain = 0
KTH1 180331Z 12004KT 07/05 A3008 RMK A01 T00690047  RH  086%=      5-min Rain = 0
KTH1 180332Z 13003KT 07/05 A3008 RMK A01 T00690047  RH  086%=      5-min Rain = 0
KTH1 180333Z 12003KT 07/05 A3008 RMK A01 T00690047  RH  086%=      5-min Rain = 0
KTH1 180334Z 13004KT 07/05 A3008 RMK A01 T00690046  RH  085%=      5-min Rain = 0
KTH1 180335Z 13004KT 07/05 A3008 RMK A01 T00690046  RH  085%=      5-min Rain = 0
KTH1 180336Z 13004KT 07/05 A3008 RMK A01 T00680045  RH  086%=      5-min Rain = 0
KTH1 180337Z 13005KT 07/05 A3008 RMK A01 T00670046  RH  086%=      5-min Rain = 0
KTH1 180338Z 13005KT 07/05 A3008 RMK A01 T00670046  RH  086%=      5-min Rain = 0
KTH1 180339Z 14004KT 07/05 A3008 RMK A01 T00670045  RH  086%=      5-min Rain = 0
KTH1 180340Z 15004KT 07/04 A3008 RMK A01 T00660044  RH  086%=      5-min Rain = 0
KTH1 180341Z 15004KT 07/04 A3008 RMK A01 T00650044  RH  086%=      5-min Rain = 0
KTH1 180342Z 15004KT 06/04 A3008 RMK A01 T00640044  RH  087%=      5-min Rain = 0
KTH1 180343Z 14004KT 06/05 A3008 RMK A01 T00640045  RH  087%=      5-min Rain = 0
KTH1 180344Z 14004KT 06/05 A3008 RMK A01 T00640045  RH  087%=      5-min Rain = 0
KTH1 180345Z 14005KT 06/04 A3008 RMK A01 T00640044  RH  088%=      5-min Rain = 0
KTH1 180346Z 14004KT 06/05 A3008 RMK A01 T00640045  RH  088%=      5-min Rain = 0
KTH1 180347Z 14004KT 06/05 A3008 RMK A01 T00630045  RH  088%=      5-min Rain = 0
KTH1 180348Z 14004KT 06/05 A3008 RMK A01 T00640045  RH  088%=      5-min Rain = 0
KTH1 180349Z 13004KT 07/05 A3008 RMK A01 T00650046  RH  088%=      5-min Rain = 0
KTH1 180350Z 13003KT 07/05 A3008 RMK A01 T00650046  RH  088%=      5-min Rain = 0
KTH1 180351Z 13003KT 07/05 A3008 RMK A01 T00660046  RH  087%=      5-min Rain = 0
KTH1 180352Z 12003KT 07/05 A3008 RMK A01 T00660046  RH  087%=      5-min Rain = 0
KTH1 180353Z 12002KT 07/05 A3008 RMK A01 T00670047  RH  087%=      5-min Rain = 0
KTH1 180354Z 12003KT 07/05 A3008 RMK A01 T00670046  RH  087%=      5-min Rain = 0
KTH1 180355Z 12003KT 07/05 A3008 RMK A01 T00670046  RH  087%=      5-min Rain = 0
KTH1 180356Z 13003KT 07/05 A3008 RMK A01 T00670046  RH  087%=      5-min Rain = 0
KTH1 180357Z 13004KT 07/05 A3008 RMK A01 T00670046  RH  086%=      5-min Rain = 0
KTH1 180358Z 13003KT 07/05 A3008 RMK A01 T00670046  RH  086%=      5-min Rain = 0
KTH1 180359Z 13004KT 07/05 A3007 RMK A01 T00660046  RH  087%=      5-min Rain = 0
KTH1 180400Z 13004KT 07/05 A3007 RMK A01 T00660046  RH  087%=      5-min Rain = 0
KTH1 180401Z 14004KT 07/05 A3007 RMK A01 T00660046  RH  087%=      5-min Rain = 0
KTH1 180402Z 14004KT 07/05 A3008 RMK A01 T00660045  RH  087%=      5-min Rain = 0
KTH1 180403Z 14003KT 07/05 A3008 RMK A01 T00650045  RH  087%=      5-min Rain = 0
KTH1 180404Z 14003KT 07/04 A3008 RMK A01 T00650044  RH  087%=      5-min Rain = 0
KTH1 180405Z 14003KT 06/04 A3008 RMK A01 T00640044  RH  088%=      5-min Rain = 0
KTH1 180406Z 14004KT 06/05 A3008 RMK A01 T00630045  RH  088%=      5-min Rain = 0
KTH1 180407Z 14004KT 06/05 A3008 RMK A01 T00640046  RH  088%=      5-min Rain = 0
KTH1 180408Z 14003KT 06/05 A3008 RMK A01 T00640045  RH  088%=      5-min Rain = 0
KTH1 180409Z 14004KT 06/05 A3008 RMK A01 T00640045  RH  088%=      5-min Rain = 0
KTH1 180410Z 14004KT 06/05 A3008 RMK A01 T00630045  RH  088%=      5-min Rain = 0
KTH1 180411Z 14004KT 06/05 A3008 RMK A01 T00640046  RH  088%=      5-min Rain = 0
KTH1 180412Z 13003KT 06/05 A3008 RMK A01 T00640046  RH  088%=      5-min Rain = 0
KTH1 180413Z 13003KT 06/05 A3008 RMK A01 T00640046  RH  088%=      5-min Rain = 0
KTH1 180414Z 13003KT 07/05 A3008 RMK A01 T00650047  RH  088%=      5-min Rain = 0
KTH1 180415Z 13003KT 07/05 A3009 RMK A01 T00650046  RH  088%=      5-min Rain = 0
KTH1 180416Z 13003KT 07/05 A3008 RMK A01 T00660046  RH  087%=      5-min Rain = 0
KTH1 180417Z 13003KT 07/05 A3008 RMK A01 T00660046  RH  087%=      5-min Rain = 0
KTH1 180418Z 13003KT 07/05 A3009 RMK A01 T00650046  RH  087%=      5-min Rain = 0
KTH1 180419Z 14003KT 07/05 A3009 RMK A01 T00660046  RH  088%=      5-min Rain = 0
KTH1 180420Z 14004KT 07/05 A3009 RMK A01 T00660047  RH  088%=      5-min Rain = 0
KTH1 180421Z 14004KT 07/05 A3009 RMK A01 T00650047  RH  088%=      5-min Rain = 0
KTH1 180422Z 13004KT 07/05 A3009 RMK A01 T00650046  RH  088%=      5-min Rain = 0
KTH1 180423Z 13003KT 07/05 A3009 RMK A01 T00660047  RH  088%=      5-min Rain = 0
KTH1 180424Z 13004KT 07/05 A3008 RMK A01 T00660047  RH  088%=      5-min Rain = 0
KTH1 180425Z 13005KT 07/05 A3009 RMK A01 T00650047  RH  088%=      5-min Rain = 0
KTH1 180426Z 13005KT 07/05 A3009 RMK A01 T00650047  RH  088%=      5-min Rain = 0
KTH1 180427Z 13005KT 07/05 A3009 RMK A01 T00660047  RH  088%=      5-min Rain = 0
KTH1 180428Z 13005KT 07/05 A3009 RMK A01 T00650047  RH  088%=      5-min Rain = 0
KTH1 180429Z 13005KT 07/05 A3009 RMK A01 T00650047  RH  088%=      5-min Rain = 0
KTH1 180430Z 13004KT 07/05 A3009 RMK A01 T00650047  RH  088%=      5-min Rain = 0
KTH1 180431Z 13004KT 07/05 A3009 RMK A01 T00650047  RH  088%=      5-min Rain = 0
KTH1 180432Z 13004KT 07/05 A3009 RMK A01 T00650047  RH  088%=      5-min Rain = 0
KTH1 180433Z 12004KT 07/05 A3009 RMK A01 T00650047  RH  088%=      5-min Rain = 0
KTH1 180434Z 13004KT 07/05 A3009 RMK A01 T00650047  RH  088%=      5-min Rain = 0
KTH1 180435Z 12004KT 07/05 A3009 RMK A01 T00650047  RH  088%=      5-min Rain = 0
KTH1 180436Z 13004KT 07/05 A3009 RMK A01 T00650047  RH  088%=      5-min Rain = 0
KTH1 180437Z 13004KT 07/05 A3009 RMK A01 T00660048  RH  088%=      5-min Rain = 0
KTH1 180438Z 13004KT 07/05 A3009 RMK A01 T00660048  RH  088%=      5-min Rain = 0
KTH1 180439Z 14004KT 07/05 A3009 RMK A01 T00660047  RH  088%=      5-min Rain = 0
KTH1 180440Z 14004KT 07/05 A3009 RMK A01 T00660047  RH  088%=      5-min Rain = 0
KTH1 180441Z 14004KT 07/05 A3009 RMK A01 T00660047  RH  088%=      5-min Rain = 0
KTH1 180442Z 14004KT 07/05 A3009 RMK A01 T00650047  RH  088%=      5-min Rain = 0
KTH1 180443Z 14004KT 07/05 A3008 RMK A01 T00650047  RH  088%=      5-min Rain = 0
KTH1 180444Z 14004KT 06/05 A3008 RMK A01 T00640046  RH  088%=      5-min Rain = 0
KTH1 180445Z 14004KT 06/05 A3008 RMK A01 T00640046  RH  089%=      5-min Rain = 0
KTH1 180446Z 14004KT 06/05 A3008 RMK A01 T00630046  RH  089%=      5-min Rain = 0
KTH1 180447Z 14004KT 06/05 A3008 RMK A01 T00630046  RH  089%=      5-min Rain = 0
KTH1 180448Z 14004KT 06/05 A3008 RMK A01 T00620046  RH  089%=      5-min Rain = 0
KTH1 180449Z 14004KT 06/05 A3008 RMK A01 T00620046  RH  090%=      5-min Rain = 0
KTH1 180450Z 13004KT 06/05 A3008 RMK A01 T00620047  RH  090%=      5-min Rain = 0
KTH1 180451Z 13004KT 06/05 A3008 RMK A01 T00620046  RH  090%=      5-min Rain = 0
KTH1 180452Z 12003KT 06/05 A3008 RMK A01 T00620047  RH  090%=      5-min Rain = 0
KTH1 180453Z 12004KT 06/05 A3008 RMK A01 T00620047  RH  090%=      5-min Rain = 0
KTH1 180454Z 12003KT 06/05 A3008 RMK A01 T00620047  RH  090%=      5-min Rain = 0
KTH1 180455Z 13004KT 06/05 A3008 RMK A01 T00620047  RH  090%=      5-min Rain = 0
KTH1 180456Z 13004KT 06/05 A3008 RMK A01 T00630047  RH  089%=      5-min Rain = 0
KTH1 180457Z 12004KT 06/05 A3008 RMK A01 T00630047  RH  089%=      5-min Rain = 0
KTH1 180458Z 12004KT 06/05 A3008 RMK A01 T00640047  RH  089%=      5-min Rain = 0
KTH1 180459Z 12004KT 06/05 A3008 RMK A01 T00640048  RH  089%=      5-min Rain = 0
KTH1 180500Z 12004KT 07/05 A3008 RMK A01 T00650048  RH  089%=      5-min Rain = 0
KTH1 180501Z 12004KT 07/05 A3008 RMK A01 T00650048  RH  088%=      5-min Rain = 0
KTH1 180502Z 12004KT 07/05 A3008 RMK A01 T00650047  RH  088%=      5-min Rain = 0
KTH1 180503Z 12003KT 07/05 A3008 RMK A01 T00650047  RH  088%=      5-min Rain = 0
KTH1 180504Z 12003KT 07/05 A3008 RMK A01 T00650047  RH  088%=      5-min Rain = 0
KTH1 180505Z 12004KT 07/05 A3008 RMK A01 T00650047  RH  089%=      5-min Rain = 0
KTH1 180506Z 12004KT 07/05 A3007 RMK A01 T00650047  RH  088%=      5-min Rain = 0
KTH1 180507Z 12004KT 07/05 A3007 RMK A01 T00650047  RH  089%=      5-min Rain = 0
KTH1 180508Z 12003KT 07/05 A3007 RMK A01 T00650047  RH  088%=      5-min Rain = 0
KTH1 180509Z 12003KT 06/05 A3007 RMK A01 T00640047  RH  089%=      5-min Rain = 0
KTH1 180510Z 13003KT 06/05 A3007 RMK A01 T00640046  RH  089%=      5-min Rain = 0
KTH1 180511Z 12003KT 06/05 A3007 RMK A01 T00630046  RH  089%=      5-min Rain = 0
KTH1 180512Z 12003KT 06/05 A3007 RMK A01 T00630046  RH  089%=      5-min Rain = 0
KTH1 180513Z 12003KT 06/05 A3007 RMK A01 T00630046  RH  089%=      5-min Rain = 0
KTH1 180514Z 11003KT 06/05 A3007 RMK A01 T00620046  RH  089%=      5-min Rain = 0
KTH1 180515Z 11002KT 06/05 A3007 RMK A01 T00620045  RH  089%=      5-min Rain = 0
KTH1 180516Z 11002KT 06/05 A3007 RMK A01 T00610046  RH  090%=      5-min Rain = 0
KTH1 180517Z 11003KT 06/05 A3007 RMK A01 T00620046  RH  090%=      5-min Rain = 0
KTH1 180518Z 11003KT 06/05 A3007 RMK A01 T00610046  RH  090%=      5-min Rain = 0
KTH1 180519Z 12003KT 06/05 A3007 RMK A01 T00610046  RH  090%=      5-min Rain = 0
KTH1 180520Z 12003KT 06/05 A3007 RMK A01 T00610046  RH  090%=      5-min Rain = 0
KTH1 180521Z 13003KT 06/05 A3007 RMK A01 T00610046  RH  090%=      5-min Rain = 0
KTH1 180522Z 14003KT 06/05 A3007 RMK A01 T00600046  RH  090%=      5-min Rain = 0
KTH1 180523Z 14003KT 06/05 A3007 RMK A01 T00600045  RH  090%=      5-min Rain = 0
KTH1 180524Z 14003KT 06/05 A3007 RMK A01 T00600045  RH  090%=      5-min Rain = 0
KTH1 180525Z 14003KT 06/05 A3007 RMK A01 T00590045  RH  090%=      5-min Rain = 0
KTH1 180526Z 14003KT 06/04 A3007 RMK A01 T00590044  RH  090%=      5-min Rain = 0
KTH1 180527Z 13003KT 06/04 A3007 RMK A01 T00590044  RH  090%=      5-min Rain = 0
KTH1 180528Z 14003KT 06/04 A3007 RMK A01 T00580044  RH  091%=      5-min Rain = 0
KTH1 180529Z 15004KT 06/04 A3007 RMK A01 T00580044  RH  091%=      5-min Rain = 0
KTH1 180530Z 15003KT 06/05 A3007 RMK A01 T00580045  RH  091%=      5-min Rain = 0
KTH1 180531Z 14004KT 06/04 A3007 RMK A01 T00580044  RH  091%=      5-min Rain = 0
KTH1 180532Z 15005KT 06/04 A3007 RMK A01 T00580044  RH  091%=      5-min Rain = 0
KTH1 180533Z 15005KT 06/05 A3007 RMK A01 T00580045  RH  092%=      5-min Rain = 0
KTH1 180534Z 15005KT 06/05 A3007 RMK A01 T00580046  RH  092%=      5-min Rain = 0
KTH1 180535Z 16005KT 06/05 A3007 RMK A01 T00590045  RH  091%=      5-min Rain = 0
KTH1 180536Z 15005KT 06/05 A3007 RMK A01 T00590045  RH  091%=      5-min Rain = 0
KTH1 180537Z 15005KT 06/05 A3007 RMK A01 T00590045  RH  091%=      5-min Rain = 0
KTH1 180538Z 16005KT 06/05 A3006 RMK A01 T00590045  RH  091%=      5-min Rain = 0
KTH1 180539Z 15005KT 06/05 A3006 RMK A01 T00590046  RH  091%=      5-min Rain = 0
KTH1 180540Z 16005KT 06/05 A3006 RMK A01 T00590045  RH  091%=      5-min Rain = 0
KTH1 180541Z 16005KT 06/05 A3006 RMK A01 T00590045  RH  091%=      5-min Rain = 0
KTH1 180542Z 15005KT 06/04 A3006 RMK A01 T00580044  RH  091%=      5-min Rain = 0
KTH1 180543Z 15006KT 06/04 A3006 RMK A01 T00580044  RH  091%=      5-min Rain = 0
KTH1 180544Z 16005KT 06/04 A3006 RMK A01 T00580044  RH  091%=      5-min Rain = 0
KTH1 180545Z 15005KT 06/04 A3006 RMK A01 T00570044  RH  091%=      5-min Rain = 0
KTH1 180546Z 15005KT 06/04 A3006 RMK A01 T00570043  RH  091%=      5-min Rain = 0
KTH1 180547Z 15004KT 06/04 A3006 RMK A01 T00570043  RH  091%=      5-min Rain = 0
KTH1 180548Z 15004KT 06/04 A3006 RMK A01 T00560043  RH  091%=      5-min Rain = 0
KTH1 180549Z 15004KT 06/04 A3006 RMK A01 T00550043  RH  092%=      5-min Rain = 0
KTH1 180550Z 15004KT 06/04 A3006 RMK A01 T00550043  RH  092%=      5-min Rain = 0
KTH1 180551Z 15004KT 05/04 A3006 RMK A01 T00540043  RH  092%=      5-min Rain = 0
KTH1 180552Z 15004KT 06/04 A3005 RMK A01 T00550043  RH  092%=      5-min Rain = 0
KTH1 180553Z 15004KT 06/04 A3005 RMK A01 T00550044  RH  093%=      5-min Rain = 0
KTH1 180554Z 15004KT 05/04 A3005 RMK A01 T00540044  RH  093%=      5-min Rain = 0
KTH1 180555Z 15004KT 05/04 A3005 RMK A01 T00540043  RH  093%=      5-min Rain = 0
KTH1 180556Z 16005KT 05/04 A3005 RMK A01 T00540044  RH  093%=      5-min Rain = 0
KTH1 180557Z 16005KT 06/04 A3005 RMK A01 T00550044  RH  093%=      5-min Rain = 0
KTH1 180558Z 16004KT 06/04 A3005 RMK A01 T00550044  RH  093%=      5-min Rain = 0
KTH1 180559Z 16004KT 06/05 A3005 RMK A01 T00550045  RH  093%=      5-min Rain = 0

Page generated in 0.2201 seconds.